Observation data for Van Horn on 06/14/2019      Previous  Date  Next       Current Mesonet Observations  Soil Data  Daily Summary Page  Observations in Plain Language
KVA1 140500Z 01010G16KT 23/12 A3018 RMK A01 T02280118  RH  050%=      5-min Rain = 0
KVA1 140501Z 02014KT 23/12 A3018 RMK A01 T02270120  RH  051%=      5-min Rain = 0
KVA1 140502Z 01013KT 22/13 A3018 RMK A01 T02240127  RH  054%=      5-min Rain = 0
KVA1 140503Z 02013KT 22/13 A3018 RMK A01 T02210131  RH  056%=      5-min Rain = 0
KVA1 140504Z 02012KT 22/13 A3018 RMK A01 T02170134  RH  059%=      5-min Rain = 0
KVA1 140505Z 02014KT 21/14 A3018 RMK A01 T02140136  RH  061%=      5-min Rain = 0
KVA1 140506Z 02015KT 21/14 A3018 RMK A01 T02130135  RH  061%=      5-min Rain = 0
KVA1 140507Z 02016KT 21/13 A3018 RMK A01 T02120134  RH  061%=      5-min Rain = 0
KVA1 140508Z 02015KT 21/13 A3017 RMK A01 T02120134  RH  061%=      5-min Rain = 0
KVA1 140509Z 02013KT 21/13 A3017 RMK A01 T02120133  RH  061%=      5-min Rain = 0
KVA1 140510Z 02014KT 21/13 A3017 RMK A01 T02110134  RH  061%=      5-min Rain = 0
KVA1 140511Z 02011G18KT 21/14 A3017 RMK A01 T02110137  RH  062%=      5-min Rain = 0
KVA1 140512Z 02013KT 21/14 A3017 RMK A01 T02100135  RH  062%=      5-min Rain = 0
KVA1 140513Z 03010G15KT 21/13 A3017 RMK A01 T02100134  RH  062%=      5-min Rain = 0
KVA1 140514Z 03010KT 21/14 A3017 RMK A01 T02100136  RH  062%=      5-min Rain = 0
KVA1 140515Z 02008KT 21/14 A3018 RMK A01 T02100136  RH  063%=      5-min Rain = 0
KVA1 140516Z 02007KT 21/14 A3018 RMK A01 T02090137  RH  064%=      5-min Rain = 0
KVA1 140517Z 01007KT 21/14 A3018 RMK A01 T02090139  RH  064%=      5-min Rain = 0
KVA1 140518Z 01011KT 21/14 A3018 RMK A01 T02080136  RH  063%=      5-min Rain = 0
KVA1 140519Z 01008KT 21/14 A3018 RMK A01 T02080136  RH  063%=      5-min Rain = 0
KVA1 140520Z 01007KT 21/14 A3018 RMK A01 T02080137  RH  064%=      5-min Rain = 0
KVA1 140521Z 00008KT 21/14 A3018 RMK A01 T02080139  RH  064%=      5-min Rain = 0
KVA1 140522Z 36006KT 21/14 A3018 RMK A01 T02080137  RH  064%=      5-min Rain = 0
KVA1 140523Z 35006KT 21/14 A3019 RMK A01 T02080138  RH  064%=      5-min Rain = 0
KVA1 140524Z 35006KT 21/14 A3019 RMK A01 T02080139  RH  065%=      5-min Rain = 0
KVA1 140525Z 34007KT 21/14 A3019 RMK A01 T02070140  RH  065%=      5-min Rain = 0
KVA1 140526Z 35007KT 21/14 A3019 RMK A01 T02070140  RH  065%=      5-min Rain = 0
KVA1 140527Z 34008KT 21/14 A3019 RMK A01 T02070140  RH  065%=      5-min Rain = 0
KVA1 140528Z 35009KT 21/14 A3019 RMK A01 T02070139  RH  065%=      5-min Rain = 0
KVA1 140529Z 35010KT 21/14 A3019 RMK A01 T02070138  RH  065%=      5-min Rain = 0
KVA1 140530Z 35010KT 21/14 A3019 RMK A01 T02070138  RH  065%=      5-min Rain = 0
KVA1 140531Z 35009KT 21/14 A3019 RMK A01 T02070139  RH  065%=      5-min Rain = 0
KVA1 140532Z 36011KT 21/14 A3019 RMK A01 T02070139  RH  065%=      5-min Rain = 0
KVA1 140533Z 36011KT 21/14 A3019 RMK A01 T02070138  RH  065%=      5-min Rain = 0
KVA1 140534Z 00010KT 21/14 A3019 RMK A01 T02070139  RH  065%=      5-min Rain = 0
KVA1 140535Z 36011KT 21/14 A3019 RMK A01 T02060138  RH  065%=      5-min Rain = 0
KVA1 140536Z 00011KT 21/14 A3019 RMK A01 T02060137  RH  065%=      5-min Rain = 0
KVA1 140537Z 36010KT 21/14 A3019 RMK A01 T02060137  RH  065%=      5-min Rain = 0
KVA1 140538Z 35010KT 21/14 A3019 RMK A01 T02060137  RH  064%=      5-min Rain = 0
KVA1 140539Z 35008KT 21/14 A302 RMK A01 T02070138  RH  064%=      5-min Rain = 0
KVA1 140540Z 35008KT 21/14 A302 RMK A01 T02070137  RH  064%=      5-min Rain = 0
KVA1 140541Z 35007KT 21/14 A302 RMK A01 T02070138  RH  065%=      5-min Rain = 0
KVA1 140542Z 34007KT 21/14 A302 RMK A01 T02070140  RH  065%=      5-min Rain = 0
KVA1 140543Z 34007KT 21/14 A302 RMK A01 T02070139  RH  065%=      5-min Rain = 0
KVA1 140544Z 35008KT 21/14 A302 RMK A01 T02070138  RH  065%=      5-min Rain = 0
KVA1 140545Z 35007KT 21/14 A302 RMK A01 T02070138  RH  064%=      5-min Rain = 0
KVA1 140546Z 00006KT 21/14 A302 RMK A01 T02080138  RH  064%=      5-min Rain = 0
KVA1 140547Z 00006KT 21/14 A302 RMK A01 T02080138  RH  064%=      5-min Rain = 0
KVA1 140548Z 01006KT 21/14 A302 RMK A01 T02090137  RH  063%=      5-min Rain = 0
KVA1 140549Z 02008KT 21/14 A302 RMK A01 T02100137  RH  063%=      5-min Rain = 0
KVA1 140550Z 03008KT 21/14 A302 RMK A01 T02100136  RH  062%=      5-min Rain = 0
KVA1 140551Z 04011KT 21/14 A302 RMK A01 T02110139  RH  063%=      5-min Rain = 0.01
KVA1 140552Z 05013KT 21/15 A3019 RMK A01 T02090146  RH  067%=      5-min Rain = 0.03
KVA1 140553Z 05015KT 20/15 A3018 RMK A01 T02030147  RH  070%=      5-min Rain = 0.01
KVA1 140554Z 05015KT 20/15 A3017 RMK A01 T01990149  RH  073%=      5-min Rain = 0.01
KVA1 140555Z 06013KT 20/15 A3017 RMK A01 T01960149  RH  074%=      5-min Rain = 0
KVA1 140556Z 06012KT 19/15 A3017 RMK A01 T01940151  RH  076%=      5-min Rain = 0
KVA1 140557Z 06012KT 19/15 A3017 RMK A01 T01930151  RH  076%=      5-min Rain = 0
KVA1 140558Z 06010KT 19/15 A3018 RMK A01 T01930151  RH  077%=      5-min Rain = 0
KVA1 140559Z 06008KT 19/15 A3018 RMK A01 T01930153  RH  078%=      5-min Rain = 0
KVA1 140600Z 06009KT 19/15 A3018 RMK A01 T01920154  RH  079%=      5-min Rain = 0
KVA1 140601Z 06009KT 19/15 A3018 RMK A01 T01920153  RH  078%=      5-min Rain = 0
KVA1 140602Z 06008KT 19/15 A3018 RMK A01 T01920152  RH  078%=      5-min Rain = 0
KVA1 140603Z 06006KT 19/15 A3018 RMK A01 T01920153  RH  078%=      5-min Rain = 0
KVA1 140604Z 06006KT 19/16 A3017 RMK A01 T01920155  RH  079%=      5-min Rain = 0
KVA1 140605Z 06006KT 19/16 A3017 RMK A01 T01920155  RH  079%=      5-min Rain = 0
KVA1 140606Z 06005KT 19/16 A3017 RMK A01 T01920157  RH  080%=      5-min Rain = 0
KVA1 140607Z 06004KT 19/16 A3017 RMK A01 T01920157  RH  080%=      5-min Rain = 0
KVA1 140608Z 07005KT 19/16 A3017 RMK A01 T01920156  RH  080%=      5-min Rain = 0
KVA1 140609Z 06004KT 19/16 A3017 RMK A01 T01910157  RH  081%=      5-min Rain = 0
KVA1 140610Z 07004KT 19/16 A3017 RMK A01 T01910157  RH  080%=      5-min Rain = 0
KVA1 140611Z 07004KT 19/16 A3016 RMK A01 T01910157  RH  081%=      5-min Rain = 0
KVA1 140612Z 08004KT 19/16 A3016 RMK A01 T01910158  RH  081%=      5-min Rain = 0
KVA1 140613Z 08004KT 19/16 A3016 RMK A01 T01900157  RH  081%=      5-min Rain = 0
KVA1 140614Z 08004KT 19/16 A3016 RMK A01 T01900160  RH  082%=      5-min Rain = 0
KVA1 140615Z 08004KT 19/16 A3016 RMK A01 T01900158  RH  082%=      5-min Rain = 0
KVA1 140616Z 07003KT 19/16 A3016 RMK A01 T01890158  RH  082%=      5-min Rain = 0
KVA1 140617Z 07003KT 19/16 A3016 RMK A01 T01900159  RH  083%=      5-min Rain = 0
KVA1 140618Z 08003KT 19/16 A3016 RMK A01 T01890161  RH  083%=      5-min Rain = 0
KVA1 140619Z 09003KT 19/16 A3016 RMK A01 T01890160  RH  083%=      5-min Rain = 0
KVA1 140620Z 11002KT 19/16 A3016 RMK A01 T01890160  RH  084%=      5-min Rain = 0
KVA1 140621Z 12002KT 19/16 A3016 RMK A01 T01890162  RH  084%=      5-min Rain = 0
KVA1 140622Z 13003KT 19/16 A3016 RMK A01 T01890161  RH  084%=      5-min Rain = 0
KVA1 140623Z 14003KT 19/16 A3016 RMK A01 T01880162  RH  085%=      5-min Rain = 0
KVA1 140624Z 13003KT 19/16 A3017 RMK A01 T01880162  RH  085%=      5-min Rain = 0
KVA1 140625Z 10002KT 19/16 A3017 RMK A01 T01880160  RH  084%=      5-min Rain = 0
KVA1 140626Z 10002KT 19/16 A3017 RMK A01 T01880160  RH  084%=      5-min Rain = 0
KVA1 140627Z 07002KT 19/16 A3017 RMK A01 T01880160  RH  084%=      5-min Rain = 0
KVA1 140628Z 06002KT 19/16 A3017 RMK A01 T01880160  RH  084%=      5-min Rain = 0
KVA1 140629Z 05003KT 19/16 A3017 RMK A01 T01880161  RH  084%=      5-min Rain = 0
KVA1 140630Z 03002KT 19/16 A3016 RMK A01 T01880163  RH  085%=      5-min Rain = 0
KVA1 140631Z 00004KT 19/16 A3016 RMK A01 T01880164  RH  086%=      5-min Rain = 0
KVA1 140632Z 35005KT 19/17 A3016 RMK A01 T01880166  RH  087%=      5-min Rain = 0
KVA1 140633Z 36006KT 19/17 A3016 RMK A01 T01870165  RH  087%=      5-min Rain = 0
KVA1 140634Z 00006KT 19/16 A3016 RMK A01 T01870164  RH  087%=      5-min Rain = 0
KVA1 140635Z 35005KT 19/16 A3016 RMK A01 T01860162  RH  086%=      5-min Rain = 0
KVA1 140636Z 36006KT 19/16 A3016 RMK A01 T01860161  RH  085%=      5-min Rain = 0
KVA1 140637Z 00008KT 19/16 A3016 RMK A01 T01860159  RH  084%=      5-min Rain = 0
KVA1 140638Z 36008KT 19/15 A3016 RMK A01 T01870152  RH  080%=      5-min Rain = 0
KVA1 140639Z 36009KT 19/15 A3016 RMK A01 T01900151  RH  078%=      5-min Rain = 0
KVA1 140640Z 01007KT 19/15 A3016 RMK A01 T01930150  RH  076%=      5-min Rain = 0
KVA1 140641Z 01007KT 19/15 A3016 RMK A01 T01940152  RH  077%=      5-min Rain = 0
KVA1 140642Z 02006KT 19/15 A3016 RMK A01 T01940153  RH  077%=      5-min Rain = 0
KVA1 140643Z 03006KT 19/15 A3016 RMK A01 T01940153  RH  077%=      5-min Rain = 0
KVA1 140644Z 02007KT 19/15 A3016 RMK A01 T01930153  RH  077%=      5-min Rain = 0
KVA1 140645Z 02006KT 19/15 A3016 RMK A01 T01930152  RH  077%=      5-min Rain = 0
KVA1 140646Z 02007KT 19/15 A3016 RMK A01 T01930151  RH  077%=      5-min Rain = 0
KVA1 140647Z 02007KT 19/15 A3016 RMK A01 T01930153  RH  077%=      5-min Rain = 0
KVA1 140648Z 02007KT 19/15 A3016 RMK A01 T01930153  RH  078%=      5-min Rain = 0
KVA1 140649Z 03006KT 19/15 A3016 RMK A01 T01920153  RH  078%=      5-min Rain = 0
KVA1 140650Z 02006KT 19/15 A3016 RMK A01 T01920154  RH  079%=      5-min Rain = 0
KVA1 140651Z 02006KT 19/16 A3016 RMK A01 T01920155  RH  079%=      5-min Rain = 0
KVA1 140652Z 01006KT 19/16 A3016 RMK A01 T01910155  RH  080%=      5-min Rain = 0
KVA1 140653Z 01006KT 19/16 A3016 RMK A01 T01910156  RH  080%=      5-min Rain = 0
KVA1 140654Z 02006KT 19/16 A3016 RMK A01 T01910157  RH  081%=      5-min Rain = 0
KVA1 140655Z 01006KT 19/16 A3016 RMK A01 T01900158  RH  082%=      5-min Rain = 0
KVA1 140656Z 01007KT 19/16 A3016 RMK A01 T01890158  RH  082%=      5-min Rain = 0
KVA1 140657Z 01007KT 19/16 A3016 RMK A01 T01890158  RH  082%=      5-min Rain = 0
KVA1 140658Z 01008KT 19/16 A3016 RMK A01 T01890159  RH  083%=      5-min Rain = 0
KVA1 140659Z 01008KT 19/16 A3015 RMK A01 T01880157  RH  082%=      5-min Rain = 0
KVA1 140700Z 01008KT 19/16 A3015 RMK A01 T01880155  RH  081%=      5-min Rain = 0
KVA1 140701Z 01007KT 19/15 A3015 RMK A01 T01880154  RH  080%=      5-min Rain = 0
KVA1 140702Z 01006KT 19/15 A3015 RMK A01 T01890154  RH  080%=      5-min Rain = 0
KVA1 140703Z 02006KT 19/15 A3015 RMK A01 T01890154  RH  080%=      5-min Rain = 0
KVA1 140704Z 02005KT 19/15 A3015 RMK A01 T01900154  RH  080%=      5-min Rain = 0
KVA1 140705Z 02006KT 19/16 A3015 RMK A01 T01900155  RH  080%=      5-min Rain = 0
KVA1 140706Z 02005KT 19/16 A3015 RMK A01 T01900155  RH  080%=      5-min Rain = 0
KVA1 140707Z 01005KT 19/15 A3015 RMK A01 T01910154  RH  079%=      5-min Rain = 0
KVA1 140708Z 02004KT 19/16 A3015 RMK A01 T01910156  RH  080%=      5-min Rain = 0
KVA1 140709Z 02004KT 19/16 A3015 RMK A01 T01910158  RH  081%=      5-min Rain = 0
KVA1 140710Z 01004KT 19/16 A3015 RMK A01 T01900158  RH  081%=      5-min Rain = 0
KVA1 140711Z 00004KT 19/16 A3015 RMK A01 T01890157  RH  081%=      5-min Rain = 0
KVA1 140712Z 36004KT 19/16 A3015 RMK A01 T01890157  RH  081%=      5-min Rain = 0
KVA1 140713Z 35004KT 19/16 A3015 RMK A01 T01900158  RH  082%=      5-min Rain = 0
KVA1 140714Z 35005KT 19/16 A3015 RMK A01 T01890160  RH  083%=      5-min Rain = 0
KVA1 140715Z 00005KT 19/16 A3015 RMK A01 T01890160  RH  083%=      5-min Rain = 0
KVA1 140716Z 00004KT 19/16 A3015 RMK A01 T01880157  RH  082%=      5-min Rain = 0
KVA1 140717Z 36004KT 19/16 A3015 RMK A01 T01890157  RH  082%=      5-min Rain = 0
KVA1 140718Z 36005KT 19/16 A3015 RMK A01 T01890159  RH  082%=      5-min Rain = 0
KVA1 140719Z 01006KT 19/16 A3015 RMK A01 T01900158  RH  082%=      5-min Rain = 0
KVA1 140720Z 01006KT 19/16 A3015 RMK A01 T01900157  RH  081%=      5-min Rain = 0
KVA1 140721Z 01006KT 19/16 A3015 RMK A01 T01900156  RH  080%=      5-min Rain = 0
KVA1 140722Z 01006KT 19/16 A3015 RMK A01 T01910157  RH  081%=      5-min Rain = 0
KVA1 140723Z 02005KT 19/16 A3015 RMK A01 T01910157  RH  081%=      5-min Rain = 0
KVA1 140724Z 02005KT 19/16 A3015 RMK A01 T01910157  RH  080%=      5-min Rain = 0
KVA1 140725Z 02005KT 19/16 A3015 RMK A01 T01910156  RH  080%=      5-min Rain = 0
KVA1 140726Z 02005KT 19/16 A3015 RMK A01 T01920156  RH  080%=      5-min Rain = 0
KVA1 140727Z 02004KT 19/16 A3015 RMK A01 T01920158  RH  081%=      5-min Rain = 0
KVA1 140728Z 02004KT 19/16 A3015 RMK A01 T01920158  RH  081%=      5-min Rain = 0
KVA1 140729Z 02004KT 19/16 A3015 RMK A01 T01920158  RH  081%=      5-min Rain = 0
KVA1 140730Z 02003KT 19/16 A3015 RMK A01 T01920159  RH  081%=      5-min Rain = 0
KVA1 140731Z 02003KT 19/16 A3015 RMK A01 T01920157  RH  080%=      5-min Rain = 0
KVA1 140732Z 02003KT 19/16 A3015 RMK A01 T01920158  RH  081%=      5-min Rain = 0
KVA1 140733Z 02003KT 19/16 A3015 RMK A01 T01930159  RH  081%=      5-min Rain = 0
KVA1 140734Z 03002KT 19/16 A3015 RMK A01 T01920161  RH  082%=      5-min Rain = 0
KVA1 140735Z 02002KT 19/16 A3015 RMK A01 T01920161  RH  082%=      5-min Rain = 0
KVA1 140736Z 00002KT 19/16 A3015 RMK A01 T01930159  RH  081%=      5-min Rain = 0
KVA1 140737Z 36002KT 19/16 A3016 RMK A01 T01930158  RH  080%=      5-min Rain = 0
KVA1 140738Z 35002KT 19/16 A3016 RMK A01 T01940156  RH  079%=      5-min Rain = 0
KVA1 140739Z 34002KT 20/16 A3016 RMK A01 T01950155  RH  078%=      5-min Rain = 0
KVA1 140740Z 32001KT 20/16 A3016 RMK A01 T01950159  RH  079%=      5-min Rain = 0
KVA1 140741Z 32002KT 20/16 A3016 RMK A01 T01960161  RH  081%=      5-min Rain = 0
KVA1 140742Z 32003KT 20/16 A3017 RMK A01 T01960162  RH  081%=      5-min Rain = 0
KVA1 140743Z 33004KT 20/16 A3017 RMK A01 T01950162  RH  081%=      5-min Rain = 0
KVA1 140744Z 34005KT 19/16 A3017 RMK A01 T01940164  RH  082%=      5-min Rain = 0
KVA1 140745Z 34005KT 19/16 A3017 RMK A01 T01940164  RH  083%=      5-min Rain = 0
KVA1 140746Z 34006KT 19/16 A3017 RMK A01 T01930164  RH  083%=      5-min Rain = 0
KVA1 140747Z 35006KT 19/16 A3017 RMK A01 T01930162  RH  082%=      5-min Rain = 0
KVA1 140748Z 35006KT 19/16 A3017 RMK A01 T01930161  RH  081%=      5-min Rain = 0
KVA1 140749Z 35005KT 19/16 A3017 RMK A01 T01940158  RH  080%=      5-min Rain = 0
KVA1 140750Z 35005KT 20/16 A3018 RMK A01 T01950158  RH  079%=      5-min Rain = 0
KVA1 140751Z 35005KT 20/16 A3018 RMK A01 T01960156  RH  077%=      5-min Rain = 0
KVA1 140752Z 34004KT 20/16 A3018 RMK A01 T01980157  RH  077%=      5-min Rain = 0
KVA1 140753Z 34004KT 20/16 A3018 RMK A01 T01980160  RH  078%=      5-min Rain = 0
KVA1 140754Z 34004KT 20/16 A3018 RMK A01 T01980157  RH  077%=      5-min Rain = 0
KVA1 140755Z 34004KT 20/16 A3018 RMK A01 T01990157  RH  077%=      5-min Rain = 0
KVA1 140756Z 34004KT 20/16 A3018 RMK A01 T01990156  RH  076%=      5-min Rain = 0
KVA1 140757Z 34004KT 20/16 A3018 RMK A01 T01990157  RH  077%=      5-min Rain = 0
KVA1 140758Z 35002KT 20/15 A3018 RMK A01 T01990153  RH  075%=      5-min Rain = 0
KVA1 140759Z 03002KT 20/16 A3018 RMK A01 T02000156  RH  076%=      5-min Rain = 0
KVA1 140800Z 04002KT 20/15 A3018 RMK A01 T02000154  RH  075%=      5-min Rain = 0
KVA1 140801Z 07001KT 20/15 A3018 RMK A01 T02010151  RH  073%=      5-min Rain = 0
KVA1 140802Z 06003KT 20/15 A3018 RMK A01 T02020154  RH  074%=      5-min Rain = 0
KVA1 140803Z 06002KT 20/16 A3017 RMK A01 T02020155  RH  074%=      5-min Rain = 0
KVA1 140804Z 06001KT 20/15 A3017 RMK A01 T02020153  RH  073%=      5-min Rain = 0
KVA1 140805Z 05000KT 20/15 A3017 RMK A01 T02020152  RH  073%=      5-min Rain = 0
KVA1 140806Z 06001KT 20/15 A3017 RMK A01 T02030154  RH  073%=      5-min Rain = 0
KVA1 140807Z 01002G8KT 20/15 A3017 RMK A01 T02030154  RH  074%=      5-min Rain = 0
KVA1 140808Z 35005KT 20/15 A3017 RMK A01 T02030149  RH  071%=      5-min Rain = 0
KVA1 140809Z 35008KT 21/14 A3017 RMK A01 T02050142  RH  067%=      5-min Rain = 0
KVA1 140810Z 35009KT 21/14 A3017 RMK A01 T02090140  RH  064%=      5-min Rain = 0
KVA1 140811Z 34009KT 21/14 A3017 RMK A01 T02120138  RH  063%=      5-min Rain = 0
KVA1 140812Z 34007KT 21/14 A3017 RMK A01 T02140138  RH  062%=      5-min Rain = 0
KVA1 140813Z 33006KT 22/14 A3017 RMK A01 T02160135  RH  060%=      5-min Rain = 0
KVA1 140814Z 33006KT 22/14 A3017 RMK A01 T02160141  RH  062%=      5-min Rain = 0
KVA1 140815Z 34006KT 22/14 A3017 RMK A01 T02160141  RH  062%=      5-min Rain = 0
KVA1 140816Z 33004KT 22/14 A3017 RMK A01 T02150139  RH  062%=      5-min Rain = 0
KVA1 140817Z 34005KT 22/14 A3017 RMK A01 T02150139  RH  062%=      5-min Rain = 0
KVA1 140818Z 35003KT 22/14 A3017 RMK A01 T02150140  RH  062%=      5-min Rain = 0
KVA1 140819Z 34005KT 22/14 A3017 RMK A01 T02150143  RH  063%=      5-min Rain = 0
KVA1 140820Z 34005KT 22/14 A3017 RMK A01 T02150142  RH  063%=      5-min Rain = 0
KVA1 140821Z 36007KT 22/14 A3017 RMK A01 T02150142  RH  063%=      5-min Rain = 0
KVA1 140822Z 36008KT 21/14 A3017 RMK A01 T02140139  RH  062%=      5-min Rain = 0
KVA1 140823Z 36008KT 21/14 A3017 RMK A01 T02140141  RH  063%=      5-min Rain = 0
KVA1 140824Z 36007KT 21/14 A3017 RMK A01 T02140141  RH  063%=      5-min Rain = 0
KVA1 140825Z 36009KT 21/14 A3017 RMK A01 T02140139  RH  063%=      5-min Rain = 0
KVA1 140826Z 01008KT 21/14 A3017 RMK A01 T02130138  RH  062%=      5-min Rain = 0
KVA1 140827Z 00010G15KT 21/14 A3017 RMK A01 T02140139  RH  062%=      5-min Rain = 0
KVA1 140828Z 00009KT 21/14 A3017 RMK A01 T02140139  RH  062%=      5-min Rain = 0
KVA1 140829Z 00011KT 21/14 A3017 RMK A01 T02130139  RH  062%=      5-min Rain = 0
KVA1 140830Z 01009KT 21/14 A3017 RMK A01 T02130138  RH  062%=      5-min Rain = 0
KVA1 140831Z 00010KT 21/14 A3017 RMK A01 T02130140  RH  063%=      5-min Rain = 0
KVA1 140832Z 36009KT 21/14 A3017 RMK A01 T02120137  RH  062%=      5-min Rain = 0
KVA1 140833Z 01007KT 21/14 A3017 RMK A01 T02110139  RH  063%=      5-min Rain = 0
KVA1 140834Z 01008KT 21/14 A3017 RMK A01 T02110140  RH  064%=      5-min Rain = 0
KVA1 140835Z 01006KT 21/14 A3017 RMK A01 T02100141  RH  065%=      5-min Rain = 0
KVA1 140836Z 01009KT 21/14 A3017 RMK A01 T02080142  RH  066%=      5-min Rain = 0
KVA1 140837Z 01009KT 21/14 A3017 RMK A01 T02080144  RH  067%=      5-min Rain = 0
KVA1 140838Z 02011KT 21/14 A3016 RMK A01 T02060142  RH  067%=      5-min Rain = 0
KVA1 140839Z 02009KT 21/14 A3016 RMK A01 T02050144  RH  068%=      5-min Rain = 0
KVA1 140840Z 03009KT 20/14 A3016 RMK A01 T02040144  RH  068%=      5-min Rain = 0
KVA1 140841Z 04009KT 20/14 A3016 RMK A01 T02040144  RH  068%=      5-min Rain = 0
KVA1 140842Z 04008KT 20/14 A3016 RMK A01 T02030143  RH  068%=      5-min Rain = 0
KVA1 140843Z 04008KT 20/14 A3015 RMK A01 T02030143  RH  068%=      5-min Rain = 0
KVA1 140844Z 05008KT 20/14 A3015 RMK A01 T02030142  RH  068%=      5-min Rain = 0
KVA1 140845Z 06008KT 20/14 A3015 RMK A01 T02030142  RH  068%=      5-min Rain = 0
KVA1 140846Z 07008KT 20/14 A3015 RMK A01 T02020142  RH  068%=      5-min Rain = 0
KVA1 140847Z 07008KT 20/14 A3015 RMK A01 T02020144  RH  069%=      5-min Rain = 0
KVA1 140848Z 08008KT 20/15 A3015 RMK A01 T02010146  RH  070%=      5-min Rain = 0
KVA1 140849Z 07009KT 20/15 A3015 RMK A01 T02010145  RH  070%=      5-min Rain = 0
KVA1 140850Z 07007KT 20/14 A3014 RMK A01 T02010144  RH  070%=      5-min Rain = 0
KVA1 140851Z 08007KT 20/15 A3014 RMK A01 T02010145  RH  070%=      5-min Rain = 0
KVA1 140852Z 09007KT 20/15 A3014 RMK A01 T02010146  RH  071%=      5-min Rain = 0
KVA1 140853Z 09006KT 20/15 A3014 RMK A01 T02010149  RH  072%=      5-min Rain = 0
KVA1 140854Z 09006KT 20/15 A3014 RMK A01 T01990150  RH  073%=      5-min Rain = 0
KVA1 140855Z 10005KT 20/15 A3014 RMK A01 T01990152  RH  074%=      5-min Rain = 0
KVA1 140856Z 09006KT 20/15 A3014 RMK A01 T01980153  RH  075%=      5-min Rain = 0
KVA1 140857Z 09005KT 20/15 A3014 RMK A01 T01970153  RH  076%=      5-min Rain = 0
KVA1 140858Z 09005KT 20/15 A3014 RMK A01 T01960151  RH  075%=      5-min Rain = 0
KVA1 140859Z 10005KT 20/15 A3014 RMK A01 T01960151  RH  075%=      5-min Rain = 0
KVA1 140900Z 11006KT 20/15 A3013 RMK A01 T01950151  RH  075%=      5-min Rain = 0
KVA1 140901Z 10006KT 20/15 A3013 RMK A01 T01950152  RH  076%=      5-min Rain = 0
KVA1 140902Z 09007KT 19/15 A3013 RMK A01 T01940151  RH  076%=      5-min Rain = 0
KVA1 140903Z 10007KT 19/15 A3013 RMK A01 T01940148  RH  074%=      5-min Rain = 0
KVA1 140904Z 10007KT 19/15 A3013 RMK A01 T01940147  RH  074%=      5-min Rain = 0
KVA1 140905Z 10005KT 19/15 A3013 RMK A01 T01940146  RH  073%=      5-min Rain = 0
KVA1 140906Z 10006KT 19/15 A3013 RMK A01 T01940146  RH  073%=      5-min Rain = 0
KVA1 140907Z 10006KT 19/15 A3013 RMK A01 T01940146  RH  074%=      5-min Rain = 0
KVA1 140908Z 10006KT 20/15 A3013 RMK A01 T01950147  RH  074%=      5-min Rain = 0
KVA1 140909Z 11006KT 20/15 A3013 RMK A01 T01950147  RH  074%=      5-min Rain = 0
KVA1 140910Z 11006KT 20/15 A3013 RMK A01 T01950147  RH  074%=      5-min Rain = 0
KVA1 140911Z 11006KT 20/15 A3013 RMK A01 T01950146  RH  074%=      5-min Rain = 0
KVA1 140912Z 11005KT 20/15 A3013 RMK A01 T01950147  RH  074%=      5-min Rain = 0
KVA1 140913Z 10006KT 20/15 A3013 RMK A01 T01950147  RH  074%=      5-min Rain = 0
KVA1 140914Z 09006KT 20/15 A3013 RMK A01 T01950146  RH  073%=      5-min Rain = 0
KVA1 140915Z 10006KT 20/14 A3013 RMK A01 T01950144  RH  073%=      5-min Rain = 0
KVA1 140916Z 09006KT 20/15 A3013 RMK A01 T01950145  RH  073%=      5-min Rain = 0
KVA1 140917Z 10005KT 20/15 A3013 RMK A01 T01950145  RH  073%=      5-min Rain = 0
KVA1 140918Z 09005KT 20/15 A3013 RMK A01 T01950145  RH  073%=      5-min Rain = 0
KVA1 140919Z 08004KT 20/14 A3013 RMK A01 T01950144  RH  072%=      5-min Rain = 0
KVA1 140920Z 09004KT 20/14 A3013 RMK A01 T01950144  RH  073%=      5-min Rain = 0
KVA1 140921Z 08004KT 20/14 A3013 RMK A01 T01950144  RH  073%=      5-min Rain = 0
KVA1 140922Z 10004KT 20/14 A3013 RMK A01 T01950144  RH  072%=      5-min Rain = 0
KVA1 140923Z 10004KT 20/14 A3013 RMK A01 T01950143  RH  072%=      5-min Rain = 0
KVA1 140924Z 10004KT 20/14 A3013 RMK A01 T01950143  RH  072%=      5-min Rain = 0
KVA1 140925Z 11004KT 19/14 A3013 RMK A01 T01940143  RH  072%=      5-min Rain = 0
KVA1 140926Z 11004KT 19/14 A3013 RMK A01 T01940143  RH  072%=      5-min Rain = 0
KVA1 140927Z 12003KT 19/14 A3013 RMK A01 T01940142  RH  072%=      5-min Rain = 0
KVA1 140928Z 11003KT 19/14 A3013 RMK A01 T01940143  RH  072%=      5-min Rain = 0
KVA1 140929Z 11003KT 19/14 A3013 RMK A01 T01940143  RH  072%=      5-min Rain = 0
KVA1 140930Z 13002KT 19/14 A3013 RMK A01 T01940143  RH  072%=      5-min Rain = 0
KVA1 140931Z 12002KT 19/14 A3012 RMK A01 T01940144  RH  073%=      5-min Rain = 0
KVA1 140932Z 14002KT 19/14 A3012 RMK A01 T01940143  RH  072%=      5-min Rain = 0
KVA1 140933Z 14001KT 19/14 A3012 RMK A01 T01940144  RH  073%=      5-min Rain = 0
KVA1 140934Z 13002KT 19/14 A3012 RMK A01 T01940144  RH  073%=      5-min Rain = 0
KVA1 140935Z 14001KT 19/14 A3012 RMK A01 T01940143  RH  072%=      5-min Rain = 0
KVA1 140936Z 14000KT 19/14 A3012 RMK A01 T01930143  RH  072%=      5-min Rain = 0
KVA1 140937Z 06000KT 19/14 A3012 RMK A01 T01930142  RH  072%=      5-min Rain = 0
KVA1 140938Z 07000KT 19/14 A3012 RMK A01 T01930144  RH  073%=      5-min Rain = 0
KVA1 140939Z 04000KT 19/14 A3012 RMK A01 T01930143  RH  073%=      5-min Rain = 0
KVA1 140940Z 35000KT 19/15 A3012 RMK A01 T01930145  RH  074%=      5-min Rain = 0
KVA1 140941Z 35001KT 19/15 A3012 RMK A01 T01930147  RH  075%=      5-min Rain = 0
KVA1 140942Z 31000KT 19/14 A3012 RMK A01 T01920144  RH  073%=      5-min Rain = 0
KVA1 140943Z 32000KT 19/14 A3012 RMK A01 T01920144  RH  074%=      5-min Rain = 0
KVA1 140944Z 32002KT 19/15 A3012 RMK A01 T01920146  RH  075%=      5-min Rain = 0
KVA1 140945Z 31002KT 19/15 A3012 RMK A01 T01910147  RH  075%=      5-min Rain = 0
KVA1 140946Z 30002KT 19/15 A3012 RMK A01 T01910147  RH  076%=      5-min Rain = 0
KVA1 140947Z 30002KT 19/15 A3011 RMK A01 T01900149  RH  077%=      5-min Rain = 0
KVA1 140948Z 31002KT 19/15 A3011 RMK A01 T01900151  RH  078%=      5-min Rain = 0
KVA1 140949Z 30002KT 19/15 A3011 RMK A01 T01890150  RH  078%=      5-min Rain = 0
KVA1 140950Z 30002KT 19/15 A3011 RMK A01 T01890151  RH  079%=      5-min Rain = 0
KVA1 140951Z 30001KT 19/15 A3011 RMK A01 T01880151  RH  079%=      5-min Rain = 0
KVA1 140952Z 30000KT 19/15 A3011 RMK A01 T01880152  RH  080%=      5-min Rain = 0
KVA1 140953Z 30002KT 19/15 A3011 RMK A01 T01880151  RH  079%=      5-min Rain = 0
KVA1 140954Z 29001KT 19/15 A3011 RMK A01 T01880151  RH  079%=      5-min Rain = 0
KVA1 140955Z 29000KT 19/15 A3011 RMK A01 T01870152  RH  080%=      5-min Rain = 0
KVA1 140956Z 29000KT 19/15 A3011 RMK A01 T01870151  RH  079%=      5-min Rain = 0
KVA1 140957Z 30000KT 19/15 A3011 RMK A01 T01870151  RH  079%=      5-min Rain = 0
KVA1 140958Z 30000KT 19/15 A3011 RMK A01 T01870153  RH  081%=      5-min Rain = 0
KVA1 140959Z 00000KT 19/16 A3011 RMK A01 T01870155  RH  082%=      5-min Rain = 0
KVA1 141000Z 34001KT 19/15 A3011 RMK A01 T01870152  RH  080%=      5-min Rain = 0
KVA1 141001Z 03001KT 19/15 A3011 RMK A01 T01860151  RH  080%=      5-min Rain = 0
KVA1 141002Z 05001KT 19/16 A3011 RMK A01 T01870155  RH  082%=      5-min Rain = 0
KVA1 141003Z 07000KT 19/16 A3011 RMK A01 T01870156  RH  082%=      5-min Rain = 0
KVA1 141004Z 11000KT 19/15 A3011 RMK A01 T01870154  RH  081%=      5-min Rain = 0
KVA1 141005Z 12001KT 19/15 A3011 RMK A01 T01860154  RH  081%=      5-min Rain = 0
KVA1 141006Z 13002KT 19/15 A3011 RMK A01 T01870150  RH  079%=      5-min Rain = 0
KVA1 141007Z 13001KT 19/14 A3011 RMK A01 T01870144  RH  076%=      5-min Rain = 0
KVA1 141008Z 14001KT 19/15 A3011 RMK A01 T01880147  RH  077%=      5-min Rain = 0
KVA1 141009Z 15002KT 19/15 A3011 RMK A01 T01880145  RH  076%=      5-min Rain = 0
KVA1 141010Z 15003KT 19/14 A3011 RMK A01 T01890141  RH  074%=      5-min Rain = 0
KVA1 141011Z 16003KT 19/14 A3011 RMK A01 T01910137  RH  071%=      5-min Rain = 0
KVA1 141012Z 15003KT 19/14 A3011 RMK A01 T01940140  RH  071%=      5-min Rain = 0
KVA1 141013Z 17003KT 20/14 A3011 RMK A01 T01950139  RH  070%=      5-min Rain = 0
KVA1 141014Z 16004KT 20/14 A3011 RMK A01 T01960141  RH  070%=      5-min Rain = 0
KVA1 141015Z 17005KT 20/14 A301 RMK A01 T01970141  RH  070%=      5-min Rain = 0
KVA1 141016Z 17004KT 20/14 A301 RMK A01 T01980139  RH  069%=      5-min Rain = 0
KVA1 141017Z 16004KT 20/14 A301 RMK A01 T01990140  RH  069%=      5-min Rain = 0
KVA1 141018Z 16005KT 20/14 A301 RMK A01 T02000139  RH  068%=      5-min Rain = 0
KVA1 141019Z 15005KT 20/13 A301 RMK A01 T02010131  RH  064%=      5-min Rain = 0
KVA1 141020Z 14005KT 20/13 A301 RMK A01 T02020132  RH  064%=      5-min Rain = 0
KVA1 141021Z 14007KT 20/13 A301 RMK A01 T02030130  RH  063%=      5-min Rain = 0
KVA1 141022Z 14008KT 21/13 A3009 RMK A01 T02050130  RH  062%=      5-min Rain = 0
KVA1 141023Z 14007KT 21/13 A3009 RMK A01 T02050129  RH  061%=      5-min Rain = 0
KVA1 141024Z 14008KT 21/13 A3009 RMK A01 T02060130  RH  061%=      5-min Rain = 0
KVA1 141025Z 14009KT 21/13 A3009 RMK A01 T02070130  RH  061%=      5-min Rain = 0
KVA1 141026Z 13008KT 21/13 A3009 RMK A01 T02070128  RH  060%=      5-min Rain = 0
KVA1 141027Z 13008KT 21/13 A3009 RMK A01 T02080128  RH  060%=      5-min Rain = 0
KVA1 141028Z 13007KT 21/13 A3009 RMK A01 T02080129  RH  060%=      5-min Rain = 0
KVA1 141029Z 13006KT 21/13 A3009 RMK A01 T02080129  RH  060%=      5-min Rain = 0
KVA1 141030Z 14005KT 21/13 A3009 RMK A01 T02080130  RH  061%=      5-min Rain = 0
KVA1 141031Z 15006KT 21/13 A3009 RMK A01 T02080129  RH  060%=      5-min Rain = 0
KVA1 141032Z 15004KT 21/13 A3009 RMK A01 T02080128  RH  060%=      5-min Rain = 0
KVA1 141033Z 15004KT 21/13 A3009 RMK A01 T02080129  RH  061%=      5-min Rain = 0
KVA1 141034Z 17007KT 21/13 A3009 RMK A01 T02080129  RH  060%=      5-min Rain = 0
KVA1 141035Z 18007KT 21/13 A3009 RMK A01 T02090126  RH  059%=      5-min Rain = 0
KVA1 141036Z 21006KT 21/13 A3009 RMK A01 T02100130  RH  060%=      5-min Rain = 0
KVA1 141037Z 23005KT 21/13 A3009 RMK A01 T02090131  RH  061%=      5-min Rain = 0
KVA1 141038Z 23004KT 21/13 A3009 RMK A01 T02070134  RH  063%=      5-min Rain = 0
KVA1 141039Z 23004KT 21/14 A3009 RMK A01 T02050135  RH  064%=      5-min Rain = 0
KVA1 141040Z 24004KT 20/14 A3008 RMK A01 T02030136  RH  065%=      5-min Rain = 0
KVA1 141041Z 24004KT 20/14 A3008 RMK A01 T02010138  RH  067%=      5-min Rain = 0
KVA1 141042Z 24006KT 20/14 A3008 RMK A01 T02000140  RH  069%=      5-min Rain = 0
KVA1 141043Z 24006KT 20/14 A3008 RMK A01 T01980142  RH  070%=      5-min Rain = 0
KVA1 141044Z 24006KT 20/14 A3008 RMK A01 T01970142  RH  070%=      5-min Rain = 0
KVA1 141045Z 24005KT 20/14 A3008 RMK A01 T01970141  RH  070%=      5-min Rain = 0
KVA1 141046Z 26006KT 20/14 A3008 RMK A01 T01960141  RH  070%=      5-min Rain = 0
KVA1 141047Z 25008KT 20/14 A3008 RMK A01 T01960141  RH  071%=      5-min Rain = 0
KVA1 141048Z 25006KT 20/14 A3008 RMK A01 T01960141  RH  071%=      5-min Rain = 0
KVA1 141049Z 26006KT 20/14 A3008 RMK A01 T01960140  RH  070%=      5-min Rain = 0
KVA1 141050Z 25006KT 20/14 A3008 RMK A01 T01960141  RH  070%=      5-min Rain = 0
KVA1 141051Z 25006KT 20/14 A3008 RMK A01 T01960140  RH  070%=      5-min Rain = 0
KVA1 141052Z 25007KT 20/14 A3007 RMK A01 T01950140  RH  070%=      5-min Rain = 0
KVA1 141053Z 26007KT 20/14 A3007 RMK A01 T01950140  RH  070%=      5-min Rain = 0
KVA1 141054Z 26007KT 20/14 A3007 RMK A01 T01950138  RH  070%=      5-min Rain = 0
KVA1 141055Z 26007KT 20/14 A3007 RMK A01 T01950138  RH  070%=      5-min Rain = 0
KVA1 141056Z 26006KT 19/14 A3007 RMK A01 T01940139  RH  070%=      5-min Rain = 0
KVA1 141057Z 26006KT 19/14 A3007 RMK A01 T01940139  RH  070%=      5-min Rain = 0
KVA1 141058Z 26006KT 19/14 A3007 RMK A01 T01930138  RH  070%=      5-min Rain = 0
KVA1 141059Z 27007KT 19/14 A3007 RMK A01 T01930138  RH  070%=      5-min Rain = 0
KVA1 141100Z 27007KT 19/14 A3007 RMK A01 T01930138  RH  070%=      5-min Rain = 0
KVA1 141101Z 27007KT 19/14 A3007 RMK A01 T01930138  RH  071%=      5-min Rain = 0
KVA1 141102Z 27006KT 19/14 A3007 RMK A01 T01930137  RH  070%=      5-min Rain = 0
KVA1 141103Z 27007KT 19/14 A3007 RMK A01 T01930137  RH  070%=      5-min Rain = 0
KVA1 141104Z 27006KT 19/14 A3007 RMK A01 T01930137  RH  070%=      5-min Rain = 0
KVA1 141105Z 27006KT 19/14 A3007 RMK A01 T01930137  RH  070%=      5-min Rain = 0
KVA1 141106Z 26006KT 19/14 A3007 RMK A01 T01930138  RH  070%=      5-min Rain = 0
KVA1 141107Z 26006KT 19/14 A3007 RMK A01 T01930138  RH  071%=      5-min Rain = 0
KVA1 141108Z 26007KT 19/14 A3007 RMK A01 T01930138  RH  070%=      5-min Rain = 0
KVA1 141109Z 26007KT 19/14 A3007 RMK A01 T01930138  RH  070%=      5-min Rain = 0
KVA1 141110Z 27007KT 19/14 A3007 RMK A01 T01930138  RH  071%=      5-min Rain = 0
KVA1 141111Z 26007KT 19/14 A3007 RMK A01 T01930138  RH  071%=      5-min Rain = 0
KVA1 141112Z 26008KT 19/14 A3007 RMK A01 T01920138  RH  071%=      5-min Rain = 0
KVA1 141113Z 26008KT 19/14 A3007 RMK A01 T01920138  RH  071%=      5-min Rain = 0
KVA1 141114Z 26008KT 19/14 A3007 RMK A01 T01920137  RH  070%=      5-min Rain = 0
KVA1 141115Z 25007KT 19/14 A3007 RMK A01 T01930137  RH  070%=      5-min Rain = 0
KVA1 141116Z 25006KT 19/14 A3007 RMK A01 T01920137  RH  070%=      5-min Rain = 0
KVA1 141117Z 25007KT 19/14 A3007 RMK A01 T01920137  RH  070%=      5-min Rain = 0
KVA1 141118Z 25007KT 19/14 A3007 RMK A01 T01920137  RH  070%=      5-min Rain = 0
KVA1 141119Z 24007KT 19/14 A3006 RMK A01 T01930136  RH  070%=      5-min Rain = 0
KVA1 141120Z 24007KT 19/14 A3006 RMK A01 T01930135  RH  069%=      5-min Rain = 0
KVA1 141121Z 24008KT 19/14 A3007 RMK A01 T01940136  RH  069%=      5-min Rain = 0
KVA1 141122Z 24007KT 19/14 A3007 RMK A01 T01940136  RH  069%=      5-min Rain = 0
KVA1 141123Z 24008KT 19/14 A3007 RMK A01 T01940136  RH  069%=      5-min Rain = 0
KVA1 141124Z 24007KT 19/14 A3007 RMK A01 T01940136  RH  069%=      5-min Rain = 0
KVA1 141125Z 24008KT 19/14 A3007 RMK A01 T01940136  RH  069%=      5-min Rain = 0
KVA1 141126Z 24008KT 19/14 A3007 RMK A01 T01940136  RH  069%=      5-min Rain = 0
KVA1 141127Z 24008KT 19/14 A3007 RMK A01 T01940135  RH  069%=      5-min Rain = 0
KVA1 141128Z 24008KT 20/14 A3007 RMK A01 T01950136  RH  069%=      5-min Rain = 0
KVA1 141129Z 23008KT 20/13 A3007 RMK A01 T01950134  RH  068%=      5-min Rain = 0
KVA1 141130Z 22008KT 20/14 A3007 RMK A01 T01960135  RH  068%=      5-min Rain = 0
KVA1 141131Z 22008KT 20/13 A3007 RMK A01 T01960134  RH  067%=      5-min Rain = 0
KVA1 141132Z 22008KT 20/13 A3007 RMK A01 T01970134  RH  067%=      5-min Rain = 0
KVA1 141133Z 22008KT 20/13 A3007 RMK A01 T01970133  RH  066%=      5-min Rain = 0
KVA1 141134Z 22008KT 20/13 A3007 RMK A01 T01980134  RH  066%=      5-min Rain = 0
KVA1 141135Z 22008KT 20/13 A3007 RMK A01 T01980134  RH  066%=      5-min Rain = 0
KVA1 141136Z 21007KT 20/13 A3007 RMK A01 T01980134  RH  066%=      5-min Rain = 0
KVA1 141137Z 22008KT 20/13 A3007 RMK A01 T01980134  RH  066%=      5-min Rain = 0
KVA1 141138Z 22008KT 20/14 A3007 RMK A01 T01980136  RH  067%=      5-min Rain = 0
KVA1 141139Z 22008KT 20/14 A3007 RMK A01 T01980135  RH  067%=      5-min Rain = 0
KVA1 141140Z 22007KT 20/14 A3007 RMK A01 T01980135  RH  067%=      5-min Rain = 0
KVA1 141141Z 22008KT 20/13 A3007 RMK A01 T01980134  RH  067%=      5-min Rain = 0
KVA1 141142Z 22008KT 20/14 A3007 RMK A01 T01980135  RH  067%=      5-min Rain = 0
KVA1 141143Z 21008KT 20/14 A3007 RMK A01 T01980135  RH  067%=      5-min Rain = 0
KVA1 141144Z 21008KT 20/14 A3007 RMK A01 T01980135  RH  067%=      5-min Rain = 0
KVA1 141145Z 21008KT 20/13 A3007 RMK A01 T01990133  RH  066%=      5-min Rain = 0
KVA1 141146Z 21006KT 20/13 A3007 RMK A01 T01990134  RH  066%=      5-min Rain = 0
KVA1 141147Z 21008KT 20/14 A3007 RMK A01 T01990136  RH  067%=      5-min Rain = 0
KVA1 141148Z 21006KT 20/13 A3007 RMK A01 T01990134  RH  066%=      5-min Rain = 0
KVA1 141149Z 21006KT 20/13 A3007 RMK A01 T01990134  RH  066%=      5-min Rain = 0
KVA1 141150Z 22006KT 20/14 A3007 RMK A01 T01990135  RH  067%=      5-min Rain = 0
KVA1 141151Z 22006KT 20/14 A3007 RMK A01 T01990136  RH  067%=      5-min Rain = 0
KVA1 141152Z 22006KT 20/14 A3007 RMK A01 T01990136  RH  067%=      5-min Rain = 0
KVA1 141153Z 23007KT 20/14 A3007 RMK A01 T01980136  RH  067%=      5-min Rain = 0
KVA1 141154Z 23007KT 20/14 A3007 RMK A01 T01980137  RH  068%=      5-min Rain = 0
KVA1 141155Z 23007KT 20/14 A3007 RMK A01 T01970137  RH  068%=      5-min Rain = 0
KVA1 141156Z 23008KT 20/14 A3007 RMK A01 T01970138  RH  069%=      5-min Rain = 0
KVA1 141157Z 24007KT 20/14 A3007 RMK A01 T01970137  RH  068%=      5-min Rain = 0
KVA1 141158Z 23007KT 20/14 A3007 RMK A01 T01970137  RH  069%=      5-min Rain = 0
KVA1 141159Z 24007KT 20/14 A3007 RMK A01 T01970137  RH  069%=      5-min Rain = 0
KVA1 141200Z 23007KT 20/14 A3007 RMK A01 T01960138  RH  069%=      5-min Rain = 0
KVA1 141201Z 23006KT 20/14 A3007 RMK A01 T01960137  RH  069%=      5-min Rain = 0
KVA1 141202Z 23006KT 20/14 A3007 RMK A01 T01960137  RH  069%=      5-min Rain = 0
KVA1 141203Z 23007KT 20/14 A3007 RMK A01 T01960137  RH  068%=      5-min Rain = 0
KVA1 141204Z 22007KT 20/14 A3007 RMK A01 T01960136  RH  068%=      5-min Rain = 0
KVA1 141205Z 22007KT 20/14 A3007 RMK A01 T01970136  RH  068%=      5-min Rain = 0
KVA1 141206Z 23006KT 20/14 A3007 RMK A01 T01970136  RH  068%=      5-min Rain = 0
KVA1 141207Z 23006KT 20/14 A3007 RMK A01 T01970137  RH  068%=      5-min Rain = 0
KVA1 141208Z 22007KT 20/14 A3007 RMK A01 T01970136  RH  068%=      5-min Rain = 0
KVA1 141209Z 23005KT 20/14 A3007 RMK A01 T01980136  RH  068%=      5-min Rain = 0
KVA1 141210Z 23005KT 20/14 A3007 RMK A01 T01970136  RH  068%=      5-min Rain = 0
KVA1 141211Z 23004KT 20/14 A3007 RMK A01 T01980138  RH  068%=      5-min Rain = 0
KVA1 141212Z 23005KT 20/14 A3007 RMK A01 T01970137  RH  068%=      5-min Rain = 0
KVA1 141213Z 23005KT 20/14 A3007 RMK A01 T01970137  RH  068%=      5-min Rain = 0
KVA1 141214Z 23005KT 20/14 A3007 RMK A01 T01970137  RH  068%=      5-min Rain = 0
KVA1 141215Z 23005KT 20/14 A3007 RMK A01 T01970137  RH  068%=      5-min Rain = 0
KVA1 141216Z 23004KT 20/14 A3007 RMK A01 T01970138  RH  069%=      5-min Rain = 0
KVA1 141217Z 23005KT 20/14 A3007 RMK A01 T01970138  RH  069%=      5-min Rain = 0
KVA1 141218Z 23006KT 20/14 A3007 RMK A01 T01970138  RH  069%=      5-min Rain = 0
KVA1 141219Z 23005KT 20/14 A3007 RMK A01 T01970139  RH  069%=      5-min Rain = 0
KVA1 141220Z 23006KT 20/14 A3007 RMK A01 T01960138  RH  069%=      5-min Rain = 0
KVA1 141221Z 23006KT 20/14 A3007 RMK A01 T01960138  RH  069%=      5-min Rain = 0
KVA1 141222Z 23007KT 20/14 A3007 RMK A01 T01960137  RH  069%=      5-min Rain = 0
KVA1 141223Z 22008KT 20/14 A3007 RMK A01 T01970136  RH  068%=      5-min Rain = 0
KVA1 141224Z 23007KT 20/14 A3007 RMK A01 T01970137  RH  068%=      5-min Rain = 0
KVA1 141225Z 23008KT 20/14 A3007 RMK A01 T01980137  RH  068%=      5-min Rain = 0
KVA1 141226Z 22008KT 20/14 A3007 RMK A01 T01980137  RH  068%=      5-min Rain = 0
KVA1 141227Z 22007KT 20/14 A3007 RMK A01 T01980137  RH  068%=      5-min Rain = 0
KVA1 141228Z 22007KT 20/14 A3007 RMK A01 T01980137  RH  068%=      5-min Rain = 0
KVA1 141229Z 23007KT 20/14 A3007 RMK A01 T01990138  RH  068%=      5-min Rain = 0
KVA1 141230Z 23006KT 20/14 A3007 RMK A01 T01980138  RH  068%=      5-min Rain = 0
KVA1 141231Z 23006KT 20/14 A3007 RMK A01 T01980139  RH  068%=      5-min Rain = 0
KVA1 141232Z 22007KT 20/14 A3007 RMK A01 T01990138  RH  068%=      5-min Rain = 0
KVA1 141233Z 23007KT 20/14 A3007 RMK A01 T02000137  RH  067%=      5-min Rain = 0
KVA1 141234Z 22006KT 20/14 A3007 RMK A01 T02000137  RH  067%=      5-min Rain = 0
KVA1 141235Z 22007KT 20/14 A3007 RMK A01 T02010138  RH  067%=      5-min Rain = 0
KVA1 141236Z 22006KT 20/14 A3007 RMK A01 T02010137  RH  066%=      5-min Rain = 0
KVA1 141237Z 22006KT 20/14 A3007 RMK A01 T02010138  RH  067%=      5-min Rain = 0
KVA1 141238Z 22005KT 20/14 A3007 RMK A01 T02020137  RH  066%=      5-min Rain = 0
KVA1 141239Z 22006KT 20/14 A3007 RMK A01 T02020138  RH  066%=      5-min Rain = 0
KVA1 141240Z 22006KT 20/14 A3007 RMK A01 T02030138  RH  066%=      5-min Rain = 0
KVA1 141241Z 22006KT 20/14 A3007 RMK A01 T02030138  RH  066%=      5-min Rain = 0
KVA1 141242Z 22005KT 20/14 A3007 RMK A01 T02030137  RH  066%=      5-min Rain = 0
KVA1 141243Z 22005KT 20/14 A3007 RMK A01 T02030138  RH  066%=      5-min Rain = 0
KVA1 141244Z 22005KT 20/14 A3007 RMK A01 T02030138  RH  066%=      5-min Rain = 0
KVA1 141245Z 22006KT 20/14 A3007 RMK A01 T02030138  RH  066%=      5-min Rain = 0
KVA1 141246Z 22006KT 20/14 A3007 RMK A01 T02030139  RH  066%=      5-min Rain = 0
KVA1 141247Z 22005KT 20/14 A3007 RMK A01 T02030140  RH  067%=      5-min Rain = 0
KVA1 141248Z 22006KT 20/14 A3007 RMK A01 T02030139  RH  067%=      5-min Rain = 0
KVA1 141249Z 22005KT 20/14 A3007 RMK A01 T02030140  RH  067%=      5-min Rain = 0
KVA1 141250Z 23006KT 20/14 A3007 RMK A01 T02020138  RH  066%=      5-min Rain = 0
KVA1 141251Z 22005KT 20/14 A3007 RMK A01 T02030137  RH  066%=      5-min Rain = 0
KVA1 141252Z 22006KT 20/14 A3007 RMK A01 T02030139  RH  067%=      5-min Rain = 0
KVA1 141253Z 22006KT 20/14 A3007 RMK A01 T02020139  RH  067%=      5-min Rain = 0
KVA1 141254Z 22006KT 20/14 A3007 RMK A01 T02020139  RH  067%=      5-min Rain = 0
KVA1 141255Z 22006KT 20/14 A3007 RMK A01 T02020139  RH  067%=      5-min Rain = 0
KVA1 141256Z 21006KT 20/14 A3007 RMK A01 T02020140  RH  067%=      5-min Rain = 0
KVA1 141257Z 21005KT 20/14 A3007 RMK A01 T02020140  RH  068%=      5-min Rain = 0
KVA1 141258Z 21006KT 20/14 A3007 RMK A01 T02020140  RH  068%=      5-min Rain = 0
KVA1 141259Z 21005KT 20/14 A3007 RMK A01 T02020140  RH  067%=      5-min Rain = 0
KVA1 141300Z 21005KT 20/14 A3007 RMK A01 T02020141  RH  068%=      5-min Rain = 0
KVA1 141301Z 21004KT 20/14 A3007 RMK A01 T02020141  RH  068%=      5-min Rain = 0
KVA1 141302Z 21004KT 20/14 A3007 RMK A01 T02020142  RH  068%=      5-min Rain = 0
KVA1 141303Z 21004KT 20/14 A3007 RMK A01 T02020142  RH  068%=      5-min Rain = 0
KVA1 141304Z 20004KT 20/14 A3007 RMK A01 T02020142  RH  068%=      5-min Rain = 0
KVA1 141305Z 20005KT 20/14 A3007 RMK A01 T02020142  RH  068%=      5-min Rain = 0
KVA1 141306Z 20004KT 20/14 A3007 RMK A01 T02020141  RH  068%=      5-min Rain = 0
KVA1 141307Z 21004KT 20/14 A3007 RMK A01 T02030141  RH  068%=      5-min Rain = 0
KVA1 141308Z 21004KT 20/14 A3007 RMK A01 T02030143  RH  068%=      5-min Rain = 0
KVA1 141309Z 22004KT 20/14 A3007 RMK A01 T02030142  RH  068%=      5-min Rain = 0
KVA1 141310Z 22004KT 20/14 A3007 RMK A01 T02030142  RH  068%=      5-min Rain = 0
KVA1 141311Z 22004KT 20/14 A3008 RMK A01 T02040140  RH  067%=      5-min Rain = 0
KVA1 141312Z 22003KT 20/14 A3008 RMK A01 T02030141  RH  067%=      5-min Rain = 0
KVA1 141313Z 22004KT 20/14 A3008 RMK A01 T02030142  RH  068%=      5-min Rain = 0
KVA1 141314Z 22004KT 20/14 A3007 RMK A01 T02040141  RH  067%=      5-min Rain = 0
KVA1 141315Z 22005KT 20/14 A3007 RMK A01 T02040142  RH  067%=      5-min Rain = 0
KVA1 141316Z 22005KT 20/14 A3007 RMK A01 T02040141  RH  067%=      5-min Rain = 0
KVA1 141317Z 22005KT 20/14 A3007 RMK A01 T02040142  RH  068%=      5-min Rain = 0
KVA1 141318Z 22005KT 20/14 A3007 RMK A01 T02040144  RH  068%=      5-min Rain = 0
KVA1 141319Z 21006KT 20/14 A3007 RMK A01 T02040143  RH  068%=      5-min Rain = 0
KVA1 141320Z 21005KT 20/14 A3007 RMK A01 T02040143  RH  068%=      5-min Rain = 0
KVA1 141321Z 21006KT 20/14 A3007 RMK A01 T02040144  RH  068%=      5-min Rain = 0
KVA1 141322Z 21006KT 21/15 A3007 RMK A01 T02050145  RH  068%=      5-min Rain = 0
KVA1 141323Z 21006KT 21/14 A3007 RMK A01 T02050144  RH  068%=      5-min Rain = 0
KVA1 141324Z 22006KT 21/14 A3007 RMK A01 T02050144  RH  068%=      5-min Rain = 0
KVA1 141325Z 22006KT 21/14 A3007 RMK A01 T02050143  RH  067%=      5-min Rain = 0
KVA1 141326Z 22006KT 21/14 A3007 RMK A01 T02050143  RH  068%=      5-min Rain = 0
KVA1 141327Z 21007KT 21/14 A3007 RMK A01 T02050142  RH  067%=      5-min Rain = 0
KVA1 141328Z 21005KT 21/14 A3007 RMK A01 T02060143  RH  067%=      5-min Rain = 0
KVA1 141329Z 21007KT 21/14 A3007 RMK A01 T02060143  RH  067%=      5-min Rain = 0
KVA1 141330Z 21006KT 21/14 A3007 RMK A01 T02060141  RH  066%=      5-min Rain = 0
KVA1 141331Z 21006KT 21/14 A3007 RMK A01 T02070141  RH  066%=      5-min Rain = 0
KVA1 141332Z 22006KT 21/14 A3008 RMK A01 T02070142  RH  067%=      5-min Rain = 0
KVA1 141333Z 22006KT 21/14 A3008 RMK A01 T02070141  RH  066%=      5-min Rain = 0
KVA1 141334Z 22006KT 21/14 A3008 RMK A01 T02070141  RH  066%=      5-min Rain = 0
KVA1 141335Z 22005KT 21/14 A3008 RMK A01 T02070142  RH  066%=      5-min Rain = 0
KVA1 141336Z 22006KT 21/14 A3008 RMK A01 T02070142  RH  066%=      5-min Rain = 0
KVA1 141337Z 22006KT 21/14 A3008 RMK A01 T02070141  RH  066%=      5-min Rain = 0
KVA1 141338Z 22005KT 21/14 A3008 RMK A01 T02070142  RH  066%=      5-min Rain = 0
KVA1 141339Z 22006KT 21/14 A3008 RMK A01 T02070141  RH  066%=      5-min Rain = 0
KVA1 141340Z 21006KT 21/14 A3008 RMK A01 T02070141  RH  066%=      5-min Rain = 0
KVA1 141341Z 21007KT 21/14 A3008 RMK A01 T02070140  RH  066%=      5-min Rain = 0
KVA1 141342Z 21007KT 21/14 A3008 RMK A01 T02070141  RH  066%=      5-min Rain = 0
KVA1 141343Z 21008KT 21/14 A3008 RMK A01 T02070139  RH  065%=      5-min Rain = 0
KVA1 141344Z 21008KT 21/14 A3008 RMK A01 T02080138  RH  064%=      5-min Rain = 0
KVA1 141345Z 21008KT 21/14 A3008 RMK A01 T02090138  RH  064%=      5-min Rain = 0
KVA1 141346Z 21008KT 21/14 A3008 RMK A01 T02100139  RH  064%=      5-min Rain = 0
KVA1 141347Z 21007KT 21/14 A3008 RMK A01 T02110140  RH  064%=      5-min Rain = 0
KVA1 141348Z 21009KT 21/14 A3008 RMK A01 T02120139  RH  063%=      5-min Rain = 0
KVA1 141349Z 21011KT 21/14 A3008 RMK A01 T02130137  RH  062%=      5-min Rain = 0
KVA1 141350Z 21010KT 21/14 A3008 RMK A01 T02140136  RH  061%=      5-min Rain = 0
KVA1 141351Z 21008KT 22/14 A3008 RMK A01 T02160138  RH  061%=      5-min Rain = 0
KVA1 141352Z 21010KT 22/14 A3008 RMK A01 T02170137  RH  061%=      5-min Rain = 0
KVA1 141353Z 20009KT 22/14 A3008 RMK A01 T02190139  RH  060%=      5-min Rain = 0
KVA1 141354Z 20010KT 22/14 A3008 RMK A01 T02200139  RH  060%=      5-min Rain = 0
KVA1 141355Z 21007KT 22/14 A3008 RMK A01 T02210140  RH  060%=      5-min Rain = 0
KVA1 141356Z 21010KT 22/14 A3008 RMK A01 T02220141  RH  060%=      5-min Rain = 0
KVA1 141357Z 21010KT 22/14 A3008 RMK A01 T02220138  RH  059%=      5-min Rain = 0
KVA1 141358Z 20007KT 22/14 A3008 RMK A01 T02230140  RH  060%=      5-min Rain = 0
KVA1 141359Z 21009KT 22/14 A3008 RMK A01 T02230139  RH  059%=      5-min Rain = 0
KVA1 141400Z 20009KT 22/14 A3008 RMK A01 T02240138  RH  058%=      5-min Rain = 0
KVA1 141401Z 21009KT 22/14 A3008 RMK A01 T02240139  RH  059%=      5-min Rain = 0
KVA1 141402Z 20008KT 23/14 A3008 RMK A01 T02250142  RH  059%=      5-min Rain = 0
KVA1 141403Z 20010KT 23/14 A3008 RMK A01 T02260141  RH  059%=      5-min Rain = 0
KVA1 141404Z 19010KT 23/14 A3008 RMK A01 T02260139  RH  058%=      5-min Rain = 0
KVA1 141405Z 20011KT 23/14 A3008 RMK A01 T02260139  RH  058%=      5-min Rain = 0
KVA1 141406Z 19010KT 23/14 A3008 RMK A01 T02270139  RH  058%=      5-min Rain = 0
KVA1 141407Z 20011KT 23/14 A3008 RMK A01 T02270139  RH  057%=      5-min Rain = 0
KVA1 141408Z 20010KT 23/14 A3008 RMK A01 T02270138  RH  057%=      5-min Rain = 0
KVA1 141409Z 21008KT 23/14 A3009 RMK A01 T02270141  RH  058%=      5-min Rain = 0
KVA1 141410Z 20009KT 23/14 A3009 RMK A01 T02280140  RH  058%=      5-min Rain = 0
KVA1 141411Z 20009KT 23/14 A3009 RMK A01 T02290139  RH  057%=      5-min Rain = 0
KVA1 141412Z 20008KT 23/14 A3009 RMK A01 T02290141  RH  057%=      5-min Rain = 0
KVA1 141413Z 20009KT 23/14 A3009 RMK A01 T02300142  RH  057%=      5-min Rain = 0
KVA1 141414Z 20010KT 23/14 A3008 RMK A01 T02300141  RH  057%=      5-min Rain = 0
KVA1 141415Z 20007KT 23/14 A3009 RMK A01 T02310141  RH  057%=      5-min Rain = 0
KVA1 141416Z 18009KT 23/14 A3009 RMK A01 T02320142  RH  057%=      5-min Rain = 0
KVA1 141417Z 19009KT 23/14 A3009 RMK A01 T02330143  RH  057%=      5-min Rain = 0
KVA1 141418Z 19009KT 23/14 A3009 RMK A01 T02330143  RH  057%=      5-min Rain = 0
KVA1 141419Z 19010KT 23/14 A3009 RMK A01 T02340141  RH  056%=      5-min Rain = 0
KVA1 141420Z 19010KT 23/14 A3009 RMK A01 T02340140  RH  055%=      5-min Rain = 0
KVA1 141421Z 18010KT 24/14 A3009 RMK A01 T02350142  RH  056%=      5-min Rain = 0
KVA1 141422Z 19009KT 24/14 A3008 RMK A01 T02350141  RH  056%=      5-min Rain = 0
KVA1 141423Z 19008KT 24/14 A3009 RMK A01 T02360144  RH  056%=      5-min Rain = 0
KVA1 141424Z 19009KT 24/14 A3008 RMK A01 T02380142  RH  055%=      5-min Rain = 0
KVA1 141425Z 20008KT 24/14 A3008 RMK A01 T02380142  RH  055%=      5-min Rain = 0
KVA1 141426Z 19008KT 24/14 A3008 RMK A01 T02390141  RH  054%=      5-min Rain = 0
KVA1 141427Z 20007KT 24/14 A3008 RMK A01 T02400141  RH  054%=      5-min Rain = 0
KVA1 141428Z 20009KT 24/14 A3008 RMK A01 T02420142  RH  054%=      5-min Rain = 0
KVA1 141429Z 19009KT 24/14 A3008 RMK A01 T02420138  RH  052%=      5-min Rain = 0
KVA1 141430Z 19008KT 24/14 A3008 RMK A01 T02430138  RH  052%=      5-min Rain = 0
KVA1 141431Z 20007KT 24/14 A3008 RMK A01 T02430140  RH  053%=      5-min Rain = 0
KVA1 141432Z 20006KT 25/14 A3008 RMK A01 T02450142  RH  053%=      5-min Rain = 0
KVA1 141433Z 20007KT 25/14 A3008 RMK A01 T02460142  RH  052%=      5-min Rain = 0
KVA1 141434Z 20006KT 25/14 A3008 RMK A01 T02470143  RH  052%=      5-min Rain = 0
KVA1 141435Z 20009KT 25/14 A3008 RMK A01 T02490142  RH  052%=      5-min Rain = 0
KVA1 141436Z 21010KT 25/14 A3008 RMK A01 T02490140  RH  051%=      5-min Rain = 0
KVA1 141437Z 20008KT 25/14 A3008 RMK A01 T02500139  RH  050%=      5-min Rain = 0
KVA1 141438Z 19009KT 25/14 A3008 RMK A01 T02510139  RH  050%=      5-min Rain = 0
KVA1 141439Z 18009KT 25/14 A3008 RMK A01 T02510137  RH  049%=      5-min Rain = 0
KVA1 141440Z 19010KT 25/14 A3008 RMK A01 T02510139  RH  050%=      5-min Rain = 0
KVA1 141441Z 19010KT 25/14 A3008 RMK A01 T02520136  RH  049%=      5-min Rain = 0
KVA1 141442Z 19009KT 25/14 A3008 RMK A01 T02520137  RH  049%=      5-min Rain = 0
KVA1 141443Z 20008KT 25/14 A3008 RMK A01 T02520138  RH  049%=      5-min Rain = 0
KVA1 141444Z 19010KT 25/14 A3008 RMK A01 T02530137  RH  048%=      5-min Rain = 0
KVA1 141445Z 18009KT 25/14 A3008 RMK A01 T02540138  RH  049%=      5-min Rain = 0
KVA1 141446Z 18010KT 25/14 A3008 RMK A01 T02540138  RH  049%=      5-min Rain = 0
KVA1 141447Z 18007KT 26/14 A3008 RMK A01 T02560140  RH  049%=      5-min Rain = 0
KVA1 141448Z 18007KT 26/14 A3008 RMK A01 T02580142  RH  049%=      5-min Rain = 0
KVA1 141449Z 19009KT 26/14 A3008 RMK A01 T02580137  RH  047%=      5-min Rain = 0
KVA1 141450Z 21011KT 26/14 A3008 RMK A01 T02580136  RH  047%=      5-min Rain = 0
KVA1 141451Z 19009KT 26/14 A3008 RMK A01 T02590137  RH  047%=      5-min Rain = 0
KVA1 141452Z 21010KT 26/14 A3008 RMK A01 T02600136  RH  046%=      5-min Rain = 0
KVA1 141453Z 21013KT 26/13 A3008 RMK A01 T02610131  RH  045%=      5-min Rain = 0
KVA1 141454Z 20010KT 26/13 A3008 RMK A01 T02610132  RH  045%=      5-min Rain = 0
KVA1 141455Z 22010KT 26/13 A3008 RMK A01 T02620134  RH  045%=      5-min Rain = 0
KVA1 141456Z 20010KT 27/14 A3008 RMK A01 T02650136  RH  045%=      5-min Rain = 0
KVA1 141457Z 20012KT 27/14 A3008 RMK A01 T02660135  RH  044%=      5-min Rain = 0
KVA1 141458Z 20012KT 27/14 A3008 RMK A01 T02650135  RH  045%=      5-min Rain = 0
KVA1 141459Z 20012KT 26/13 A3008 RMK A01 T02640134  RH  044%=      5-min Rain = 0
KVA1 141500Z 21009KT 26/13 A3008 RMK A01 T02640134  RH  045%=      5-min Rain = 0
KVA1 141501Z 21010KT 27/14 A3008 RMK A01 T02660138  RH  045%=      5-min Rain = 0
KVA1 141502Z 22012KT 27/13 A3008 RMK A01 T02680134  RH  044%=      5-min Rain = 0
KVA1 141503Z 21013KT 27/13 A3008 RMK A01 T02680133  RH  043%=      5-min Rain = 0
KVA1 141504Z 21013KT 27/13 A3008 RMK A01 T02690133  RH  043%=      5-min Rain = 0
KVA1 141505Z 21014KT 27/13 A3008 RMK A01 T02690133  RH  043%=      5-min Rain = 0
KVA1 141506Z 21013KT 27/13 A3008 RMK A01 T02690132  RH  043%=      5-min Rain = 0
KVA1 141507Z 21013KT 27/13 A3008 RMK A01 T02690133  RH  043%=      5-min Rain = 0
KVA1 141508Z 21011KT 27/13 A3008 RMK A01 T02690134  RH  043%=      5-min Rain = 0
KVA1 141509Z 20010G15KT 27/14 A3008 RMK A01 T02690136  RH  044%=      5-min Rain = 0
KVA1 141510Z 20013KT 27/14 A3008 RMK A01 T02700135  RH  043%=      5-min Rain = 0
KVA1 141511Z 21013KT 27/14 A3008 RMK A01 T02700135  RH  043%=      5-min Rain = 0
KVA1 141512Z 21011KT 27/14 A3008 RMK A01 T02710137  RH  044%=      5-min Rain = 0
KVA1 141513Z 21011KT 27/14 A3008 RMK A01 T02720137  RH  043%=      5-min Rain = 0
KVA1 141514Z 22011KT 27/14 A3008 RMK A01 T02730136  RH  043%=      5-min Rain = 0
KVA1 141515Z 21014KT 27/14 A3008 RMK A01 T02730136  RH  043%=      5-min Rain = 0
KVA1 141516Z 21015KT 27/14 A3008 RMK A01 T02730136  RH  043%=      5-min Rain = 0
KVA1 141517Z 20013KT 27/14 A3008 RMK A01 T02720136  RH  043%=      5-min Rain = 0
KVA1 141518Z 20015KT 27/14 A3007 RMK A01 T02720136  RH  043%=      5-min Rain = 0
KVA1 141519Z 21012KT 27/14 A3007 RMK A01 T02720138  RH  044%=      5-min Rain = 0
KVA1 141520Z 20012G17KT 28/14 A3007 RMK A01 T02750137  RH  042%=      5-min Rain = 0
KVA1 141521Z 20014KT 28/13 A3007 RMK A01 T02770131  RH  041%=      5-min Rain = 0
KVA1 141522Z 20015KT 28/13 A3007 RMK A01 T02770129  RH  040%=      5-min Rain = 0
KVA1 141523Z 20014KT 28/13 A3007 RMK A01 T02770129  RH  040%=      5-min Rain = 0
KVA1 141524Z 20015KT 28/13 A3007 RMK A01 T02760129  RH  040%=      5-min Rain = 0
KVA1 141525Z 20013KT 28/13 A3007 RMK A01 T02750128  RH  040%=      5-min Rain = 0
KVA1 141526Z 20015KT 27/13 A3007 RMK A01 T02740129  RH  041%=      5-min Rain = 0
KVA1 141527Z 19014G19KT 27/13 A3007 RMK A01 T02730129  RH  041%=      5-min Rain = 0
KVA1 141528Z 20014KT 27/13 A3007 RMK A01 T02730131  RH  041%=      5-min Rain = 0
KVA1 141529Z 20014KT 27/13 A3007 RMK A01 T02730131  RH  042%=      5-min Rain = 0
KVA1 141530Z 20014KT 27/13 A3007 RMK A01 T02720129  RH  041%=      5-min Rain = 0
KVA1 141531Z 21015KT 27/13 A3007 RMK A01 T02720128  RH  041%=      5-min Rain = 0
KVA1 141532Z 21016KT 27/13 A3007 RMK A01 T02720127  RH  041%=      5-min Rain = 0
KVA1 141533Z 20015KT 27/13 A3007 RMK A01 T02720130  RH  041%=      5-min Rain = 0
KVA1 141534Z 20014KT 27/13 A3007 RMK A01 T02710132  RH  042%=      5-min Rain = 0
KVA1 141535Z 21015KT 27/13 A3007 RMK A01 T02730132  RH  042%=      5-min Rain = 0
KVA1 141536Z 21013KT 28/13 A3007 RMK A01 T02760134  RH  042%=      5-min Rain = 0
KVA1 141537Z 20013G19KT 28/13 A3007 RMK A01 T02780133  RH  041%=      5-min Rain = 0
KVA1 141538Z 21015KT 28/13 A3007 RMK A01 T02790131  RH  040%=      5-min Rain = 0
KVA1 141539Z 21016KT 28/13 A3007 RMK A01 T02810131  RH  040%=      5-min Rain = 0
KVA1 141540Z 22016KT 28/13 A3007 RMK A01 T02810129  RH  039%=      5-min Rain = 0
KVA1 141541Z 21013KT 28/13 A3007 RMK A01 T02800129  RH  040%=      5-min Rain = 0
KVA1 141542Z 21012G17KT 28/13 A3007 RMK A01 T02790130  RH  040%=      5-min Rain = 0
KVA1 141543Z 20016KT 28/13 A3007 RMK A01 T02810129  RH  039%=      5-min Rain = 0
KVA1 141544Z 21016KT 28/13 A3007 RMK A01 T02810126  RH  038%=      5-min Rain = 0
KVA1 141545Z 20018KT 28/12 A3007 RMK A01 T02800123  RH  038%=      5-min Rain = 0
KVA1 141546Z 21018KT 28/12 A3006 RMK A01 T02800121  RH  037%=      5-min Rain = 0
KVA1 141547Z 21015KT 28/12 A3007 RMK A01 T02800124  RH  038%=      5-min Rain = 0
KVA1 141548Z 20013G18KT 28/13 A3007 RMK A01 T02830125  RH  038%=      5-min Rain = 0
KVA1 141549Z 20014G19KT 28/13 A3006 RMK A01 T02840126  RH  038%=      5-min Rain = 0
KVA1 141550Z 20017KT 29/12 A3006 RMK A01 T02850122  RH  036%=      5-min Rain = 0
KVA1 141551Z 20016KT 28/12 A3006 RMK A01 T02840121  RH  036%=      5-min Rain = 0
KVA1 141552Z 21015KT 29/13 A3006 RMK A01 T02850125  RH  037%=      5-min Rain = 0
KVA1 141553Z 20016KT 29/12 A3006 RMK A01 T02870123  RH  036%=      5-min Rain = 0
KVA1 141554Z 20017KT 29/12 A3006 RMK A01 T02860122  RH  036%=      5-min Rain = 0
KVA1 141555Z 20018KT 29/12 A3006 RMK A01 T02850121  RH  036%=      5-min Rain = 0
KVA1 141556Z 20017KT 28/12 A3006 RMK A01 T02840119  RH  036%=      5-min Rain = 0
KVA1 141557Z 20019G24KT 28/12 A3006 RMK A01 T02840118  RH  036%=      5-min Rain = 0
KVA1 141558Z 20018KT 29/12 A3006 RMK A01 T02850118  RH  036%=      5-min Rain = 0
KVA1 141559Z 20017G23KT 28/12 A3006 RMK A01 T02840121  RH  036%=      5-min Rain = 0
KVA1 141600Z 20020KT 29/12 A3006 RMK A01 T02850121  RH  036%=      5-min Rain = 0
KVA1 141601Z 21017KT 28/12 A3006 RMK A01 T02840122  RH  037%=      5-min Rain = 0
KVA1 141602Z 21014G19KT 28/12 A3006 RMK A01 T02840122  RH  037%=      5-min Rain = 0
KVA1 141603Z 20017KT 29/12 A3006 RMK A01 T02860123  RH  036%=      5-min Rain = 0
KVA1 141604Z 20019KT 29/12 A3006 RMK A01 T02860124  RH  037%=      5-min Rain = 0
KVA1 141605Z 21016KT 29/13 A3006 RMK A01 T02850126  RH  038%=      5-min Rain = 0
KVA1 141606Z 20016KT 29/12 A3006 RMK A01 T02860124  RH  037%=      5-min Rain = 0
KVA1 141607Z 20014KT 29/12 A3006 RMK A01 T02860123  RH  036%=      5-min Rain = 0
KVA1 141608Z 20015KT 29/12 A3006 RMK A01 T02870124  RH  037%=      5-min Rain = 0
KVA1 141609Z 21016KT 29/13 A3006 RMK A01 T02870125  RH  037%=      5-min Rain = 0
KVA1 141610Z 22016KT 29/13 A3006 RMK A01 T02860126  RH  037%=      5-min Rain = 0
KVA1 141611Z 20015G20KT 29/13 A3006 RMK A01 T02870128  RH  038%=      5-min Rain = 0
KVA1 141612Z 20015KT 29/13 A3006 RMK A01 T02870127  RH  037%=      5-min Rain = 0
KVA1 141613Z 20016KT 29/13 A3006 RMK A01 T02870127  RH  037%=      5-min Rain = 0
KVA1 141614Z 20014KT 29/13 A3006 RMK A01 T02860125  RH  037%=      5-min Rain = 0
KVA1 141615Z 20013KT 29/13 A3006 RMK A01 T02860126  RH  037%=      5-min Rain = 0
KVA1 141616Z 20014KT 29/13 A3006 RMK A01 T02870127  RH  037%=      5-min Rain = 0
KVA1 141617Z 20012KT 29/13 A3006 RMK A01 T02880126  RH  037%=      5-min Rain = 0
KVA1 141618Z 19012KT 29/13 A3006 RMK A01 T02890127  RH  037%=      5-min Rain = 0
KVA1 141619Z 19013G18KT 29/13 A3006 RMK A01 T02900127  RH  037%=      5-min Rain = 0
KVA1 141620Z 20012KT 29/13 A3006 RMK A01 T02920128  RH  037%=      5-min Rain = 0
KVA1 141621Z 20012KT 29/13 A3006 RMK A01 T02940130  RH  036%=      5-min Rain = 0
KVA1 141622Z 19011G16KT 30/13 A3006 RMK A01 T02950129  RH  036%=      5-min Rain = 0
KVA1 141623Z 19016KT 30/13 A3006 RMK A01 T02960127  RH  035%=      5-min Rain = 0
KVA1 141624Z 21013KT 29/13 A3006 RMK A01 T02940128  RH  036%=      5-min Rain = 0
KVA1 141625Z 21011G16KT 29/13 A3006 RMK A01 T02910127  RH  036%=      5-min Rain = 0
KVA1 141626Z 20011KT 29/13 A3006 RMK A01 T02900131  RH  038%=      5-min Rain = 0
KVA1 141627Z 19014KT 29/13 A3006 RMK A01 T02910127  RH  036%=      5-min Rain = 0
KVA1 141628Z 20013KT 29/13 A3006 RMK A01 T02920127  RH  036%=      5-min Rain = 0
KVA1 141629Z 19014KT 29/13 A3006 RMK A01 T02930129  RH  036%=      5-min Rain = 0
KVA1 141630Z 19014KT 30/13 A3006 RMK A01 T02950127  RH  036%=      5-min Rain = 0
KVA1 141631Z 19013KT 30/13 A3005 RMK A01 T02950126  RH  035%=      5-min Rain = 0
KVA1 141632Z 20013G19KT 30/13 A3005 RMK A01 T02960127  RH  035%=      5-min Rain = 0
KVA1 141633Z 20016KT 30/12 A3005 RMK A01 T02980121  RH  034%=      5-min Rain = 0
KVA1 141634Z 21017KT 30/12 A3005 RMK A01 T03010115  RH  032%=      5-min Rain = 0
KVA1 141635Z 21013G19KT 30/12 A3005 RMK A01 T03010115  RH  032%=      5-min Rain = 0
KVA1 141636Z 21015KT 30/12 A3005 RMK A01 T03030117  RH  032%=      5-min Rain = 0
KVA1 141637Z 21016KT 31/12 A3005 RMK A01 T03050117  RH  032%=      5-min Rain = 0
KVA1 141638Z 21016KT 31/12 A3005 RMK A01 T03050117  RH  031%=      5-min Rain = 0
KVA1 141639Z 21015G21KT 30/12 A3005 RMK A01 T03040117  RH  032%=      5-min Rain = 0
KVA1 141640Z 20016KT 30/12 A3005 RMK A01 T03040117  RH  032%=      5-min Rain = 0
KVA1 141641Z 21012KT 30/12 A3005 RMK A01 T03040120  RH  032%=      5-min Rain = 0
KVA1 141642Z 20014KT 31/12 A3005 RMK A01 T03060122  RH  032%=      5-min Rain = 0
KVA1 141643Z 20015KT 31/12 A3005 RMK A01 T03070121  RH  032%=      5-min Rain = 0
KVA1 141644Z 20014KT 31/12 A3005 RMK A01 T03070122  RH  032%=      5-min Rain = 0
KVA1 141645Z 20014KT 31/12 A3005 RMK A01 T03070122  RH  032%=      5-min Rain = 0
KVA1 141646Z 19017KT 31/12 A3005 RMK A01 T03080121  RH  032%=      5-min Rain = 0
KVA1 141647Z 21014KT 31/12 A3005 RMK A01 T03090122  RH  032%=      5-min Rain = 0
KVA1 141648Z 21015G21KT 31/12 A3004 RMK A01 T03100121  RH  032%=      5-min Rain = 0
KVA1 141649Z 20017KT 31/12 A3005 RMK A01 T03090121  RH  031%=      5-min Rain = 0
KVA1 141650Z 19016KT 31/12 A3004 RMK A01 T03090121  RH  032%=      5-min Rain = 0
KVA1 141651Z 19016KT 31/12 A3005 RMK A01 T03090121  RH  032%=      5-min Rain = 0
KVA1 141652Z 19016KT 31/12 A3004 RMK A01 T03090120  RH  031%=      5-min Rain = 0
KVA1 141653Z 20015KT 31/12 A3004 RMK A01 T03090121  RH  032%=      5-min Rain = 0
KVA1 141654Z 19012KT 31/12 A3004 RMK A01 T03090121  RH  032%=      5-min Rain = 0
KVA1 141655Z 19014KT 31/12 A3004 RMK A01 T03120124  RH  032%=      5-min Rain = 0
KVA1 141656Z 20011KT 32/12 A3004 RMK A01 T03150122  RH  031%=      5-min Rain = 0
KVA1 141657Z 19016KT 32/13 A3004 RMK A01 T03170125  RH  031%=      5-min Rain = 0
KVA1 141658Z 20017KT 32/12 A3004 RMK A01 T03160124  RH  031%=      5-min Rain = 0
KVA1 141659Z 21012G17KT 32/12 A3005 RMK A01 T03160124  RH  031%=      5-min Rain = 0
KVA1 141700Z 22010KT 32/12 A3005 RMK A01 T03190124  RH  030%=      5-min Rain = 0
KVA1 141701Z 21012KT 32/12 A3004 RMK A01 T03210116  RH  029%=      5-min Rain = 0
KVA1 141702Z 25011KT 32/10 A3004 RMK A01 T03200104  RH  027%=      5-min Rain = 0
KVA1 141703Z 27015KT 32/08 A3005 RMK A01 T03220084  RH  023%=      5-min Rain = 0
KVA1 141704Z 26013G18KT 33/08 A3005 RMK A01 T03250081  RH  022%=      5-min Rain = 0
KVA1 141705Z 25012KT 33/08 A3005 RMK A01 T03280080  RH  022%=      5-min Rain = 0
KVA1 141706Z 25011KT 33/08 A3005 RMK A01 T03290078  RH  021%=      5-min Rain = 0
KVA1 141707Z 27008KT 33/08 A3005 RMK A01 T03290079  RH  021%=      5-min Rain = 0
KVA1 141708Z 28014G19KT 33/08 A3005 RMK A01 T03290078  RH  021%=      5-min Rain = 0
KVA1 141709Z 27015KT 33/07 A3005 RMK A01 T03290072  RH  020%=      5-min Rain = 0
KVA1 141710Z 29012G17KT 33/07 A3005 RMK A01 T03290070  RH  020%=      5-min Rain = 0
KVA1 141711Z 28010G15KT 33/08 A3005 RMK A01 T03290078  RH  021%=      5-min Rain = 0
KVA1 141712Z 28010G15KT 33/08 A3005 RMK A01 T03330083  RH  021%=      5-min Rain = 0
KVA1 141713Z 27009KT 34/08 A3004 RMK A01 T03350079  RH  021%=      5-min Rain = 0
KVA1 141714Z 27009KT 33/08 A3004 RMK A01 T03330078  RH  021%=      5-min Rain = 0
KVA1 141715Z 27013KT 34/08 A3004 RMK A01 T03350081  RH  021%=      5-min Rain = 0
KVA1 141716Z 27014KT 33/08 A3004 RMK A01 T03340075  RH  020%=      5-min Rain = 0
KVA1 141717Z 28010KT 33/08 A3004 RMK A01 T03330079  RH  021%=      5-min Rain = 0
KVA1 141718Z 27012KT 33/08 A3004 RMK A01 T03340080  RH  021%=      5-min Rain = 0
KVA1 141719Z 27013KT 33/08 A3004 RMK A01 T03330080  RH  021%=      5-min Rain = 0
KVA1 141720Z 25012G17KT 33/08 A3004 RMK A01 T03340081  RH  021%=      5-min Rain = 0
KVA1 141721Z 27014G22KT 34/08 A3004 RMK A01 T03370082  RH  021%=      5-min Rain = 0
KVA1 141722Z 27017KT 34/07 A3004 RMK A01 T03370072  RH  019%=      5-min Rain = 0
KVA1 141723Z 27015KT 33/07 A3004 RMK A01 T03340070  RH  019%=      5-min Rain = 0
KVA1 141724Z 28015KT 33/07 A3004 RMK A01 T03320068  RH  019%=      5-min Rain = 0
KVA1 141725Z 28010KT 33/07 A3004 RMK A01 T03290067  RH  020%=      5-min Rain = 0
KVA1 141726Z 27011KT 33/07 A3004 RMK A01 T03270069  RH  020%=      5-min Rain = 0
KVA1 141727Z 28014KT 33/08 A3004 RMK A01 T03290076  RH  021%=      5-min Rain = 0
KVA1 141728Z 27011KT 33/08 A3004 RMK A01 T03310075  RH  021%=      5-min Rain = 0
KVA1 141729Z 26013KT 33/08 A3004 RMK A01 T03320075  RH  020%=      5-min Rain = 0
KVA1 141730Z 25012KT 33/08 A3004 RMK A01 T03320078  RH  021%=      5-min Rain = 0
KVA1 141731Z 26011KT 33/08 A3004 RMK A01 T03340080  RH  021%=      5-min Rain = 0
KVA1 141732Z 27010KT 33/08 A3004 RMK A01 T03330079  RH  021%=      5-min Rain = 0
KVA1 141733Z 27008KT 33/08 A3004 RMK A01 T03310075  RH  020%=      5-min Rain = 0
KVA1 141734Z 28012G17KT 33/07 A3004 RMK A01 T03340073  RH  020%=      5-min Rain = 0
KVA1 141735Z 27013KT 33/07 A3004 RMK A01 T03330070  RH  020%=      5-min Rain = 0
KVA1 141736Z 24009KT 33/08 A3004 RMK A01 T03310075  RH  020%=      5-min Rain = 0
KVA1 141737Z 26010KT 33/08 A3004 RMK A01 T03310077  RH  021%=      5-min Rain = 0
KVA1 141738Z 26014G19KT 33/08 A3004 RMK A01 T03310076  RH  021%=      5-min Rain = 0
KVA1 141739Z 27015KT 33/07 A3004 RMK A01 T03320074  RH  020%=      5-min Rain = 0
KVA1 141740Z 27013KT 33/07 A3004 RMK A01 T03320074  RH  020%=      5-min Rain = 0
KVA1 141741Z 27012KT 33/07 A3004 RMK A01 T03290073  RH  020%=      5-min Rain = 0
KVA1 141742Z 27010G15KT 33/08 A3004 RMK A01 T03280075  RH  021%=      5-min Rain = 0
KVA1 141743Z 28008KT 33/08 A3004 RMK A01 T03280078  RH  021%=      5-min Rain = 0
KVA1 141744Z 28007KT 33/08 A3004 RMK A01 T03280080  RH  022%=      5-min Rain = 0
KVA1 141745Z 27011G20KT 33/08 A3004 RMK A01 T03290082  RH  022%=      5-min Rain = 0
KVA1 141746Z 26009G14KT 33/08 A3004 RMK A01 T03320081  RH  021%=      5-min Rain = 0
KVA1 141747Z 29011KT 33/08 A3004 RMK A01 T03340082  RH  021%=      5-min Rain = 0
KVA1 141748Z 29008G13KT 33/08 A3004 RMK A01 T03330084  RH  022%=      5-min Rain = 0
KVA1 141749Z 27013KT 33/09 A3004 RMK A01 T03320086  RH  022%=      5-min Rain = 0
KVA1 141750Z 26010KT 33/08 A3004 RMK A01 T03300084  RH  022%=      5-min Rain = 0
KVA1 141751Z 26011KT 33/09 A3004 RMK A01 T03310086  RH  022%=      5-min Rain = 0
KVA1 141752Z 27011KT 33/09 A3003 RMK A01 T03330088  RH  022%=      5-min Rain = 0
KVA1 141753Z 25014KT 34/09 A3004 RMK A01 T03360085  RH  021%=      5-min Rain = 0
KVA1 141754Z 25012KT 34/08 A3004 RMK A01 T03350078  RH  020%=      5-min Rain = 0
KVA1 141755Z 25009KT 33/08 A3003 RMK A01 T03340082  RH  021%=      5-min Rain = 0
KVA1 141756Z 25009KT 34/08 A3003 RMK A01 T03370082  RH  021%=      5-min Rain = 0
KVA1 141757Z 24013KT 34/08 A3003 RMK A01 T03370084  RH  021%=      5-min Rain = 0
KVA1 141758Z 25012KT 34/08 A3003 RMK A01 T03350083  RH  021%=      5-min Rain = 0
KVA1 141759Z 25011KT 33/08 A3003 RMK A01 T03340082  RH  021%=      5-min Rain = 0
KVA1 141800Z 25010KT 34/09 A3003 RMK A01 T03350085  RH  021%=      5-min Rain = 0
KVA1 141801Z 26014G21KT 34/08 A3003 RMK A01 T03380084  RH  021%=      5-min Rain = 0
KVA1 141802Z 27016KT 34/09 A3003 RMK A01 T03400086  RH  021%=      5-min Rain = 0
KVA1 141803Z 26016KT 34/08 A3003 RMK A01 T03380084  RH  021%=      5-min Rain = 0
KVA1 141804Z 23011KT 33/08 A3003 RMK A01 T03340084  RH  021%=      5-min Rain = 0
KVA1 141805Z 23010KT 33/08 A3003 RMK A01 T03330082  RH  021%=      5-min Rain = 0
KVA1 141806Z 25010KT 33/08 A3003 RMK A01 T03320084  RH  022%=      5-min Rain = 0
KVA1 141807Z 24008KT 34/09 A3003 RMK A01 T03370088  RH  022%=      5-min Rain = 0
KVA1 141808Z 25010KT 34/09 A3003 RMK A01 T03380085  RH  021%=      5-min Rain = 0
KVA1 141809Z 26009G14KT 34/08 A3003 RMK A01 T03380084  RH  021%=      5-min Rain = 0
KVA1 141810Z 25011KT 34/09 A3003 RMK A01 T03380086  RH  021%=      5-min Rain = 0
KVA1 141811Z 26010KT 34/09 A3003 RMK A01 T03390086  RH  021%=      5-min Rain = 0
KVA1 141812Z 26008KT 34/09 A3003 RMK A01 T03390085  RH  021%=      5-min Rain = 0
KVA1 141813Z 25011KT 34/09 A3003 RMK A01 T03380087  RH  021%=      5-min Rain = 0
KVA1 141814Z 25010KT 34/08 A3003 RMK A01 T03380080  RH  020%=      5-min Rain = 0
KVA1 141815Z 26013G18KT 34/08 A3003 RMK A01 T03350084  RH  021%=      5-min Rain = 0
KVA1 141816Z 26012KT 34/09 A3003 RMK A01 T03380085  RH  021%=      5-min Rain = 0
KVA1 141817Z 28012KT 34/08 A3003 RMK A01 T03370076  RH  020%=      5-min Rain = 0
KVA1 141818Z 28012G17KT 33/08 A3003 RMK A01 T03330075  RH  020%=      5-min Rain = 0
KVA1 141819Z 28010KT 33/08 A3003 RMK A01 T03330076  RH  020%=      5-min Rain = 0
KVA1 141820Z 27012G19KT 34/08 A3003 RMK A01 T03350081  RH  021%=      5-min Rain = 0
KVA1 141821Z 28014KT 34/08 A3003 RMK A01 T03360083  RH  021%=      5-min Rain = 0
KVA1 141822Z 28015KT 33/08 A3003 RMK A01 T03340082  RH  021%=      5-min Rain = 0
KVA1 141823Z 28011KT 33/08 A3003 RMK A01 T03330079  RH  021%=      5-min Rain = 0
KVA1 141824Z 28010G17KT 34/08 A3002 RMK A01 T03360080  RH  021%=      5-min Rain = 0
KVA1 141825Z 29014KT 34/09 A3002 RMK A01 T03390086  RH  021%=      5-min Rain = 0
KVA1 141826Z 28013G18KT 34/09 A3002 RMK A01 T03380086  RH  021%=      5-min Rain = 0
KVA1 141827Z 29013KT 34/08 A3002 RMK A01 T03380083  RH  021%=      5-min Rain = 0
KVA1 141828Z 28014KT 34/08 A3002 RMK A01 T03390082  RH  021%=      5-min Rain = 0
KVA1 141829Z 28011KT 34/08 A3002 RMK A01 T03390080  RH  020%=      5-min Rain = 0
KVA1 141830Z 29010KT 34/08 A3002 RMK A01 T03390080  RH  020%=      5-min Rain = 0
KVA1 141831Z 27013KT 34/08 A3002 RMK A01 T03390080  RH  020%=      5-min Rain = 0
KVA1 141832Z 27013KT 34/08 A3002 RMK A01 T03390076  RH  020%=      5-min Rain = 0
KVA1 141833Z 26015KT 34/07 A3002 RMK A01 T03390074  RH  020%=      5-min Rain = 0
KVA1 141834Z 27014G19KT 34/08 A3002 RMK A01 T03390079  RH  020%=      5-min Rain = 0
KVA1 141835Z 26013KT 34/08 A3002 RMK A01 T03380080  RH  020%=      5-min Rain = 0
KVA1 141836Z 27013G18KT 34/08 A3002 RMK A01 T03370080  RH  020%=      5-min Rain = 0
KVA1 141837Z 25013KT 34/08 A3002 RMK A01 T03370083  RH  021%=      5-min Rain = 0
KVA1 141838Z 23013KT 34/08 A3002 RMK A01 T03380084  RH  021%=      5-min Rain = 0
KVA1 141839Z 24010KT 34/09 A3002 RMK A01 T03400086  RH  021%=      5-min Rain = 0
KVA1 141840Z 25012KT 34/09 A3002 RMK A01 T03440086  RH  021%=      5-min Rain = 0
KVA1 141841Z 28012KT 34/09 A3002 RMK A01 T03420085  RH  021%=      5-min Rain = 0
KVA1 141842Z 28014KT 34/08 A3002 RMK A01 T03400084  RH  021%=      5-min Rain = 0
KVA1 141843Z 27014KT 34/09 A3002 RMK A01 T03410087  RH  021%=      5-min Rain = 0
KVA1 141844Z 25012G17KT 34/09 A3002 RMK A01 T03420088  RH  021%=      5-min Rain = 0
KVA1 141845Z 26010KT 34/09 A3002 RMK A01 T03440088  RH  021%=      5-min Rain = 0
KVA1 141846Z 25011KT 34/08 A3001 RMK A01 T03420083  RH  020%=      5-min Rain = 0
KVA1 141847Z 23012KT 34/09 A3001 RMK A01 T03410086  RH  021%=      5-min Rain = 0
KVA1 141848Z 23013KT 34/09 A3001 RMK A01 T03430090  RH  021%=      5-min Rain = 0
KVA1 141849Z 25011KT 34/09 A3001 RMK A01 T03430092  RH  021%=      5-min Rain = 0
KVA1 141850Z 26011KT 35/09 A3001 RMK A01 T03450090  RH  021%=      5-min Rain = 0
KVA1 141851Z 27013KT 35/09 A3001 RMK A01 T03460093  RH  021%=      5-min Rain = 0
KVA1 141852Z 27013KT 35/09 A3001 RMK A01 T03450087  RH  021%=      5-min Rain = 0
KVA1 141853Z 27012G18KT 34/09 A3001 RMK A01 T03420091  RH  021%=      5-min Rain = 0
KVA1 141854Z 26013KT 35/09 A3001 RMK A01 T03450088  RH  021%=      5-min Rain = 0
KVA1 141855Z 28011KT 34/08 A3001 RMK A01 T03430084  RH  020%=      5-min Rain = 0
KVA1 141856Z 29012KT 34/09 A3001 RMK A01 T03430087  RH  021%=      5-min Rain = 0
KVA1 141857Z 29012KT 34/09 A3001 RMK A01 T03440089  RH  021%=      5-min Rain = 0
KVA1 141858Z 29007KT 34/09 A3001 RMK A01 T03400086  RH  021%=      5-min Rain = 0
KVA1 141859Z 25007KT 34/09 A3001 RMK A01 T03380088  RH  022%=      5-min Rain = 0
KVA1 141900Z 24012KT 34/09 A3001 RMK A01 T03410092  RH  022%=      5-min Rain = 0
KVA1 141901Z 23009KT 34/09 A3001 RMK A01 T03420091  RH  022%=      5-min Rain = 0
KVA1 141902Z 25010KT 35/09 A3001 RMK A01 T03450093  RH  021%=      5-min Rain = 0
KVA1 141903Z 23011KT 35/09 A3001 RMK A01 T03460091  RH  021%=      5-min Rain = 0
KVA1 141904Z 24014KT 35/09 A3001 RMK A01 T03460085  RH  020%=      5-min Rain = 0
KVA1 141905Z 26010KT 34/09 A3001 RMK A01 T03440089  RH  021%=      5-min Rain = 0
KVA1 141906Z 25011G18KT 34/09 A3001 RMK A01 T03420089  RH  021%=      5-min Rain = 0
KVA1 141907Z 26011G17KT 34/08 A3001 RMK A01 T03410084  RH  021%=      5-min Rain = 0
KVA1 141908Z 28012KT 34/09 A3001 RMK A01 T03410085  RH  021%=      5-min Rain = 0
KVA1 141909Z 26012KT 34/09 A3001 RMK A01 T03430091  RH  021%=      5-min Rain = 0
KVA1 141910Z 26012G17KT 35/09 A3001 RMK A01 T03450092  RH  021%=      5-min Rain = 0
KVA1 141911Z 26009KT 34/09 A30 RMK A01 T03440091  RH  021%=      5-min Rain = 0
KVA1 141912Z 27009KT 34/09 A30 RMK A01 T03410089  RH  021%=      5-min Rain = 0
KVA1 141913Z 28009KT 34/09 A30 RMK A01 T03400093  RH  022%=      5-min Rain = 0
KVA1 141914Z 27012KT 34/10 A30 RMK A01 T03440096  RH  022%=      5-min Rain = 0
KVA1 141915Z 26012KT 35/09 A30 RMK A01 T03480089  RH  020%=      5-min Rain = 0
KVA1 141916Z 26012KT 35/08 A30 RMK A01 T03460082  RH  020%=      5-min Rain = 0
KVA1 141917Z 25010KT 34/08 A30 RMK A01 T03430081  RH  020%=      5-min Rain = 0
KVA1 141918Z 27013KT 34/09 A30 RMK A01 T03440085  RH  020%=      5-min Rain = 0
KVA1 141919Z 26011KT 35/09 A30 RMK A01 T03460091  RH  021%=      5-min Rain = 0
KVA1 141920Z 23011KT 35/09 A30 RMK A01 T03500090  RH  020%=      5-min Rain = 0
KVA1 141921Z 24010KT 35/09 A30 RMK A01 T03480090  RH  021%=      5-min Rain = 0
KVA1 141922Z 24011KT 35/09 A30 RMK A01 T03460090  RH  021%=      5-min Rain = 0
KVA1 141923Z 25009KT 34/09 A30 RMK A01 T03440090  RH  021%=      5-min Rain = 0
KVA1 141924Z 27009KT 34/10 A30 RMK A01 T03440095  RH  022%=      5-min Rain = 0
KVA1 141925Z 24012KT 35/10 A30 RMK A01 T03480095  RH  021%=      5-min Rain = 0
KVA1 141926Z 25010KT 35/09 A30 RMK A01 T03500090  RH  020%=      5-min Rain = 0
KVA1 141927Z 23011KT 35/09 A2999 RMK A01 T03490086  RH  020%=      5-min Rain = 0
KVA1 141928Z 26009KT 35/09 A2999 RMK A01 T03470085  RH  020%=      5-min Rain = 0
KVA1 141929Z 27009KT 35/08 A30 RMK A01 T03490084  RH  020%=      5-min Rain = 0
KVA1 141930Z 27011KT 35/09 A30 RMK A01 T03510087  RH  020%=      5-min Rain = 0
KVA1 141931Z 27009KT 35/09 A2999 RMK A01 T03490087  RH  020%=      5-min Rain = 0
KVA1 141932Z 27011KT 35/09 A2999 RMK A01 T03470088  RH  020%=      5-min Rain = 0
KVA1 141933Z 25012KT 35/09 A2999 RMK A01 T03460089  RH  021%=      5-min Rain = 0
KVA1 141934Z 23011KT 35/09 A2999 RMK A01 T03460091  RH  021%=      5-min Rain = 0
KVA1 141935Z 23008KT 35/09 A2999 RMK A01 T03460091  RH  021%=      5-min Rain = 0
KVA1 141936Z 26010KT 35/09 A2999 RMK A01 T03460092  RH  021%=      5-min Rain = 0
KVA1 141937Z 25010KT 35/09 A2999 RMK A01 T03530088  RH  020%=      5-min Rain = 0
KVA1 141938Z 23013KT 36/08 A2999 RMK A01 T03550081  RH  019%=      5-min Rain = 0
KVA1 141939Z 24010KT 35/08 A2999 RMK A01 T03540080  RH  019%=      5-min Rain = 0
KVA1 141940Z 25011KT 35/08 A2999 RMK A01 T03540081  RH  019%=      5-min Rain = 0
KVA1 141941Z 22010KT 36/08 A2999 RMK A01 T03560084  RH  019%=      5-min Rain = 0
KVA1 141942Z 24008KT 36/08 A2999 RMK A01 T03580083  RH  019%=      5-min Rain = 0
KVA1 141943Z 27009KT 36/08 A2999 RMK A01 T03580083  RH  019%=      5-min Rain = 0
KVA1 141944Z 28011KT 36/08 A2999 RMK A01 T03550081  RH  019%=      5-min Rain = 0
KVA1 141945Z 27009KT 35/08 A2999 RMK A01 T03540083  RH  019%=      5-min Rain = 0
KVA1 141946Z 25011KT 36/09 A2999 RMK A01 T03550089  RH  020%=      5-min Rain = 0
KVA1 141947Z 24008KT 36/09 A2999 RMK A01 T03550091  RH  020%=      5-min Rain = 0
KVA1 141948Z 27008KT 36/09 A2999 RMK A01 T03560091  RH  020%=      5-min Rain = 0
KVA1 141949Z 30012KT 36/09 A2999 RMK A01 T03570089  RH  020%=      5-min Rain = 0
KVA1 141950Z 29010KT 36/09 A2999 RMK A01 T03550087  RH  019%=      5-min Rain = 0
KVA1 141951Z 27009KT 35/09 A2999 RMK A01 T03540086  RH  019%=      5-min Rain = 0
KVA1 141952Z 23009KT 36/08 A2999 RMK A01 T03560082  RH  019%=      5-min Rain = 0
KVA1 141953Z 22012G18KT 36/07 A2998 RMK A01 T03570074  RH  018%=      5-min Rain = 0
KVA1 141954Z 22011G18KT 36/07 A2998 RMK A01 T03550074  RH  018%=      5-min Rain = 0
KVA1 141955Z 22011G18KT 35/07 A2998 RMK A01 T03540071  RH  018%=      5-min Rain = 0
KVA1 141956Z 24013G21KT 36/06 A2998 RMK A01 T03560064  RH  017%=      5-min Rain = 0
KVA1 141957Z 23012KT 36/05 A2998 RMK A01 T03610054  RH  015%=      5-min Rain = 0
KVA1 141958Z 25012KT 36/06 A2998 RMK A01 T03600055  RH  015%=      5-min Rain = 0
KVA1 141959Z 25011KT 36/06 A2998 RMK A01 T03590057  RH  016%=      5-min Rain = 0
KVA1 142000Z 25009G16KT 36/06 A2998 RMK A01 T03570060  RH  016%=      5-min Rain = 0
KVA1 142001Z 22012KT 36/06 A2998 RMK A01 T03590055  RH  015%=      5-min Rain = 0
KVA1 142002Z 23011G19KT 36/06 A2998 RMK A01 T03590058  RH  016%=      5-min Rain = 0
KVA1 142003Z 23014G19KT 36/06 A2998 RMK A01 T03580059  RH  016%=      5-min Rain = 0
KVA1 142004Z 24014KT 36/06 A2998 RMK A01 T03610058  RH  015%=      5-min Rain = 0
KVA1 142005Z 24015KT 37/06 A2998 RMK A01 T03650058  RH  015%=      5-min Rain = 0
KVA1 142006Z 25013KT 36/06 A2998 RMK A01 T03630060  RH  016%=      5-min Rain = 0
KVA1 142007Z 26012KT 36/06 A2998 RMK A01 T03620060  RH  016%=      5-min Rain = 0
KVA1 142008Z 25010KT 36/06 A2998 RMK A01 T03570062  RH  016%=      5-min Rain = 0
KVA1 142009Z 24016G21KT 36/06 A2998 RMK A01 T03570062  RH  016%=      5-min Rain = 0
KVA1 142010Z 24016KT 36/06 A2998 RMK A01 T03560056  RH  016%=      5-min Rain = 0
KVA1 142011Z 25012KT 35/06 A2998 RMK A01 T03530056  RH  016%=      5-min Rain = 0
KVA1 142012Z 23011KT 35/06 A2998 RMK A01 T03520059  RH  016%=      5-min Rain = 0
KVA1 142013Z 23011G16KT 35/07 A2998 RMK A01 T03540066  RH  017%=      5-min Rain = 0
KVA1 142014Z 23009G14KT 36/07 A2998 RMK A01 T03560067  RH  017%=      5-min Rain = 0
KVA1 142015Z 25009G15KT 36/07 A2998 RMK A01 T03570072  RH  017%=      5-min Rain = 0
KVA1 142016Z 25012KT 36/07 A2998 RMK A01 T03580070  RH  017%=      5-min Rain = 0
KVA1 142017Z 26009KT 36/07 A2998 RMK A01 T03550067  RH  017%=      5-min Rain = 0
KVA1 142018Z 26008KT 35/07 A2998 RMK A01 T03540068  RH  017%=      5-min Rain = 0
KVA1 142019Z 26006KT 35/07 A2998 RMK A01 T03540067  RH  017%=      5-min Rain = 0
KVA1 142020Z 27004KT 35/07 A2997 RMK A01 T03540071  RH  018%=      5-min Rain = 0
KVA1 142021Z 23003KT 36/07 A2997 RMK A01 T03550068  RH  017%=      5-min Rain = 0
KVA1 142022Z 25005KT 35/07 A2997 RMK A01 T03540071  RH  018%=      5-min Rain = 0
KVA1 142023Z 25009KT 36/07 A2997 RMK A01 T03590072  RH  017%=      5-min Rain = 0
KVA1 142024Z 23014KT 36/06 A2997 RMK A01 T03620057  RH  015%=      5-min Rain = 0
KVA1 142025Z 24016KT 36/05 A2997 RMK A01 T03630051  RH  015%=      5-min Rain = 0
KVA1 142026Z 24015G20KT 37/05 A2997 RMK A01 T03660054  RH  015%=      5-min Rain = 0
KVA1 142027Z 25012KT 37/05 A2997 RMK A01 T03650051  RH  014%=      5-min Rain = 0
KVA1 142028Z 25010KT 36/05 A2997 RMK A01 T03620050  RH  014%=      5-min Rain = 0
KVA1 142029Z 24008KT 36/05 A2997 RMK A01 T03590050  RH  015%=      5-min Rain = 0
KVA1 142030Z 23014KT 36/05 A2997 RMK A01 T03600053  RH  015%=      5-min Rain = 0
KVA1 142031Z 24012KT 36/05 A2997 RMK A01 T03640053  RH  015%=      5-min Rain = 0
KVA1 142032Z 23012KT 37/05 A2997 RMK A01 T03660053  RH  014%=      5-min Rain = 0
KVA1 142033Z 24011KT 37/05 A2997 RMK A01 T03660048  RH  014%=      5-min Rain = 0
KVA1 142034Z 24011KT 36/05 A2997 RMK A01 T03640051  RH  014%=      5-min Rain = 0
KVA1 142035Z 24005G12KT 36/05 A2997 RMK A01 T03620053  RH  015%=      5-min Rain = 0
KVA1 142036Z 23006KT 36/05 A2997 RMK A01 T03600052  RH  015%=      5-min Rain = 0
KVA1 142037Z 24010KT 36/06 A2997 RMK A01 T03590055  RH  015%=      5-min Rain = 0
KVA1 142038Z 27011KT 36/05 A2997 RMK A01 T03640051  RH  014%=      5-min Rain = 0
KVA1 142039Z 26008KT 37/05 A2997 RMK A01 T03660050  RH  014%=      5-min Rain = 0
KVA1 142040Z 28009G18KT 37/06 A2997 RMK A01 T03650055  RH  015%=      5-min Rain = 0
KVA1 142041Z 28013KT 37/05 A2997 RMK A01 T03680047  RH  014%=      5-min Rain = 0
KVA1 142042Z 28014KT 36/04 A2997 RMK A01 T03620043  RH  014%=      5-min Rain = 0
KVA1 142043Z 26011G17KT 36/05 A2997 RMK A01 T03610047  RH  014%=      5-min Rain = 0
KVA1 142044Z 26012KT 36/05 A2997 RMK A01 T03640048  RH  014%=      5-min Rain = 0
KVA1 142045Z 24013G19KT 36/05 A2997 RMK A01 T03640054  RH  015%=      5-min Rain = 0
KVA1 142046Z 25016KT 36/06 A2997 RMK A01 T03610056  RH  015%=      5-min Rain = 0
KVA1 142047Z 24013G18KT 36/06 A2997 RMK A01 T03560059  RH  016%=      5-min Rain = 0
KVA1 142048Z 25013KT 35/06 A2997 RMK A01 T03540061  RH  016%=      5-min Rain = 0
KVA1 142049Z 26011KT 35/06 A2997 RMK A01 T03520059  RH  016%=      5-min Rain = 0
KVA1 142050Z 26010KT 35/06 A2997 RMK A01 T03500057  RH  016%=      5-min Rain = 0
KVA1 142051Z 26008KT 35/06 A2997 RMK A01 T03490059  RH  017%=      5-min Rain = 0
KVA1 142052Z 27009KT 35/06 A2997 RMK A01 T03520058  RH  016%=      5-min Rain = 0
KVA1 142053Z 27005KT 35/06 A2996 RMK A01 T03510058  RH  016%=      5-min Rain = 0
KVA1 142054Z 25005KT 35/06 A2996 RMK A01 T03510059  RH  016%=      5-min Rain = 0
KVA1 142055Z 24004KT 35/06 A2996 RMK A01 T03510057  RH  016%=      5-min Rain = 0
KVA1 142056Z 21005KT 35/06 A2996 RMK A01 T03500057  RH  016%=      5-min Rain = 0
KVA1 142057Z 24005KT 35/06 A2996 RMK A01 T03500057  RH  016%=      5-min Rain = 0
KVA1 142058Z 23009KT 35/06 A2996 RMK A01 T03520057  RH  016%=      5-min Rain = 0
KVA1 142059Z 21008KT 35/06 A2996 RMK A01 T03520056  RH  016%=      5-min Rain = 0
KVA1 142100Z 25009KT 35/06 A2996 RMK A01 T03540060  RH  016%=      5-min Rain = 0
KVA1 142101Z 25007KT 36/06 A2996 RMK A01 T03580059  RH  016%=      5-min Rain = 0
KVA1 142102Z 26006KT 36/06 A2996 RMK A01 T03610064  RH  016%=      5-min Rain = 0
KVA1 142103Z 23006KT 37/06 A2996 RMK A01 T03660063  RH  016%=      5-min Rain = 0
KVA1 142104Z 27011KT 37/06 A2996 RMK A01 T03690056  RH  015%=      5-min Rain = 0
KVA1 142105Z 25012KT 37/05 A2996 RMK A01 T03670050  RH  014%=      5-min Rain = 0
KVA1 142106Z 24007KT 36/05 A2996 RMK A01 T03620045  RH  014%=      5-min Rain = 0
KVA1 142107Z 25006KT 36/04 A2996 RMK A01 T03550042  RH  014%=      5-min Rain = 0
KVA1 142108Z 27007KT 35/04 A2996 RMK A01 T03500043  RH  015%=      5-min Rain = 0
KVA1 142109Z 27006KT 35/05 A2996 RMK A01 T03500046  RH  015%=      5-min Rain = 0
KVA1 142110Z 26007KT 35/05 A2996 RMK A01 T03510046  RH  015%=      5-min Rain = 0
KVA1 142111Z 26005KT 35/04 A2996 RMK A01 T03500043  RH  015%=      5-min Rain = 0
KVA1 142112Z 26005KT 35/04 A2996 RMK A01 T03500044  RH  015%=      5-min Rain = 0
KVA1 142113Z 25006KT 35/05 A2996 RMK A01 T03510046  RH  015%=      5-min Rain = 0
KVA1 142114Z 23007KT 35/05 A2995 RMK A01 T03530047  RH  015%=      5-min Rain = 0
KVA1 142115Z 24006KT 35/05 A2995 RMK A01 T03530047  RH  015%=      5-min Rain = 0
KVA1 142116Z 24010KT 35/05 A2995 RMK A01 T03520050  RH  015%=      5-min Rain = 0
KVA1 142117Z 26010KT 35/05 A2995 RMK A01 T03520047  RH  015%=      5-min Rain = 0
KVA1 142118Z 24005KT 35/05 A2995 RMK A01 T03530046  RH  015%=      5-min Rain = 0
KVA1 142119Z 28006KT 36/05 A2995 RMK A01 T03560047  RH  015%=      5-min Rain = 0
KVA1 142120Z 27008KT 36/05 A2995 RMK A01 T03590052  RH  015%=      5-min Rain = 0
KVA1 142121Z 24009KT 36/05 A2995 RMK A01 T03620053  RH  015%=      5-min Rain = 0
KVA1 142122Z 24012KT 37/06 A2995 RMK A01 T03650055  RH  015%=      5-min Rain = 0
KVA1 142123Z 24011KT 37/06 A2995 RMK A01 T03650055  RH  015%=      5-min Rain = 0
KVA1 142124Z 22013KT 37/06 A2995 RMK A01 T03670056  RH  015%=      5-min Rain = 0
KVA1 142125Z 22011KT 37/06 A2995 RMK A01 T03650057  RH  015%=      5-min Rain = 0
KVA1 142126Z 22010KT 36/06 A2995 RMK A01 T03630058  RH  015%=      5-min Rain = 0
KVA1 142127Z 20010KT 36/06 A2995 RMK A01 T03610055  RH  015%=      5-min Rain = 0
KVA1 142128Z 21009KT 36/06 A2994 RMK A01 T03560055  RH  016%=      5-min Rain = 0
KVA1 142129Z 21010KT 35/06 A2994 RMK A01 T03540055  RH  016%=      5-min Rain = 0
KVA1 142130Z 21010KT 35/06 A2995 RMK A01 T03520055  RH  016%=      5-min Rain = 0
KVA1 142131Z 22008KT 35/06 A2995 RMK A01 T03520056  RH  016%=      5-min Rain = 0
KVA1 142132Z 25006KT 35/06 A2995 RMK A01 T03520056  RH  016%=      5-min Rain = 0
KVA1 142133Z 27004KT 35/06 A2994 RMK A01 T03530056  RH  016%=      5-min Rain = 0
KVA1 142134Z 26005KT 35/05 A2994 RMK A01 T03520054  RH  016%=      5-min Rain = 0
KVA1 142135Z 22006KT 35/06 A2994 RMK A01 T03530057  RH  016%=      5-min Rain = 0
KVA1 142136Z 27009KT 36/06 A2994 RMK A01 T03560063  RH  016%=      5-min Rain = 0
KVA1 142137Z 27009KT 36/06 A2994 RMK A01 T03590060  RH  016%=      5-min Rain = 0
KVA1 142138Z 26011KT 36/06 A2994 RMK A01 T03590059  RH  016%=      5-min Rain = 0
KVA1 142139Z 24009KT 36/06 A2994 RMK A01 T03590059  RH  016%=      5-min Rain = 0
KVA1 142140Z 22008KT 36/06 A2994 RMK A01 T03580059  RH  016%=      5-min Rain = 0
KVA1 142141Z 24007KT 36/06 A2994 RMK A01 T03550058  RH  016%=      5-min Rain = 0
KVA1 142142Z 23008KT 35/06 A2994 RMK A01 T03540058  RH  016%=      5-min Rain = 0
KVA1 142143Z 25008KT 35/06 A2994 RMK A01 T03530058  RH  016%=      5-min Rain = 0
KVA1 142144Z 25010KT 35/06 A2994 RMK A01 T03530057  RH  016%=      5-min Rain = 0
KVA1 142145Z 23007KT 35/05 A2994 RMK A01 T03530053  RH  016%=      5-min Rain = 0
KVA1 142146Z 25006KT 35/06 A2994 RMK A01 T03540055  RH  016%=      5-min Rain = 0
KVA1 142147Z 25012KT 36/06 A2994 RMK A01 T03590059  RH  016%=      5-min Rain = 0
KVA1 142148Z 26009KT 36/06 A2994 RMK A01 T03640059  RH  015%=      5-min Rain = 0
KVA1 142149Z 25010KT 37/06 A2993 RMK A01 T03680057  RH  015%=      5-min Rain = 0
KVA1 142150Z 23009KT 37/06 A2993 RMK A01 T03670059  RH  015%=      5-min Rain = 0
KVA1 142151Z 23009KT 37/06 A2993 RMK A01 T03700061  RH  015%=      5-min Rain = 0
KVA1 142152Z 23012KT 37/06 A2993 RMK A01 T03710061  RH  015%=      5-min Rain = 0
KVA1 142153Z 24012KT 37/06 A2993 RMK A01 T03690062  RH  015%=      5-min Rain = 0
KVA1 142154Z 23010KT 37/06 A2993 RMK A01 T03700061  RH  015%=      5-min Rain = 0
KVA1 142155Z 24009KT 37/06 A2993 RMK A01 T03700062  RH  015%=      5-min Rain = 0
KVA1 142156Z 24017KT 37/06 A2993 RMK A01 T03700062  RH  015%=      5-min Rain = 0
KVA1 142157Z 24013KT 37/06 A2993 RMK A01 T03690061  RH  015%=      5-min Rain = 0
KVA1 142158Z 24012G17KT 37/06 A2993 RMK A01 T03680060  RH  015%=      5-min Rain = 0
KVA1 142159Z 23015KT 37/06 A2993 RMK A01 T03670058  RH  015%=      5-min Rain = 0
KVA1 142200Z 23012KT 37/06 A2993 RMK A01 T03660056  RH  015%=      5-min Rain = 0
KVA1 142201Z 22013KT 36/06 A2993 RMK A01 T03640058  RH  015%=      5-min Rain = 0
KVA1 142202Z 21013KT 37/06 A2993 RMK A01 T03650057  RH  015%=      5-min Rain = 0
KVA1 142203Z 21011KT 36/06 A2993 RMK A01 T03640058  RH  015%=      5-min Rain = 0
KVA1 142204Z 25012KT 36/06 A2993 RMK A01 T03640058  RH  015%=      5-min Rain = 0
KVA1 142205Z 25011KT 37/06 A2993 RMK A01 T03660056  RH  015%=      5-min Rain = 0
KVA1 142206Z 24013KT 37/06 A2993 RMK A01 T03680056  RH  015%=      5-min Rain = 0
KVA1 142207Z 25014KT 37/05 A2993 RMK A01 T03670053  RH  014%=      5-min Rain = 0
KVA1 142208Z 24014KT 37/06 A2993 RMK A01 T03670055  RH  015%=      5-min Rain = 0
KVA1 142209Z 26010KT 37/05 A2993 RMK A01 T03650052  RH  014%=      5-min Rain = 0
KVA1 142210Z 23004KT 36/05 A2993 RMK A01 T03630052  RH  015%=      5-min Rain = 0
KVA1 142211Z 25006KT 36/05 A2993 RMK A01 T03640054  RH  015%=      5-min Rain = 0
KVA1 142212Z 26011KT 37/06 A2993 RMK A01 T03680057  RH  015%=      5-min Rain = 0
KVA1 142213Z 27012KT 37/06 A2993 RMK A01 T03700055  RH  014%=      5-min Rain = 0
KVA1 142214Z 27012KT 37/05 A2993 RMK A01 T03680051  RH  014%=      5-min Rain = 0
KVA1 142215Z 27010KT 37/05 A2993 RMK A01 T03660052  RH  014%=      5-min Rain = 0
KVA1 142216Z 28010KT 37/05 A2993 RMK A01 T03680054  RH  014%=      5-min Rain = 0
KVA1 142217Z 28012KT 37/05 A2993 RMK A01 T03700054  RH  014%=      5-min Rain = 0
KVA1 142218Z 27013KT 37/05 A2993 RMK A01 T03690051  RH  014%=      5-min Rain = 0
KVA1 142219Z 27012KT 37/05 A2993 RMK A01 T03690052  RH  014%=      5-min Rain = 0
KVA1 142220Z 27013G18KT 37/05 A2992 RMK A01 T03700050  RH  014%=      5-min Rain = 0
KVA1 142221Z 28012G17KT 37/05 A2993 RMK A01 T03690049  RH  014%=      5-min Rain = 0
KVA1 142222Z 28014KT 37/05 A2993 RMK A01 T03670050  RH  014%=      5-min Rain = 0
KVA1 142223Z 26010KT 37/05 A2993 RMK A01 T03670049  RH  014%=      5-min Rain = 0
KVA1 142224Z 25009KT 37/05 A2992 RMK A01 T03670047  RH  014%=      5-min Rain = 0
KVA1 142225Z 26010KT 37/05 A2992 RMK A01 T03660046  RH  014%=      5-min Rain = 0
KVA1 142226Z 24012KT 36/05 A2992 RMK A01 T03630045  RH  014%=      5-min Rain = 0
KVA1 142227Z 23013KT 36/05 A2992 RMK A01 T03620046  RH  014%=      5-min Rain = 0
KVA1 142228Z 23012G17KT 36/04 A2992 RMK A01 T03630044  RH  014%=      5-min Rain = 0
KVA1 142229Z 23013G19KT 37/04 A2992 RMK A01 T03650043  RH  014%=      5-min Rain = 0
KVA1 142230Z 24009KT 37/04 A2992 RMK A01 T03660043  RH  013%=      5-min Rain = 0
KVA1 142231Z 24009KT 37/04 A2992 RMK A01 T03670042  RH  013%=      5-min Rain = 0
KVA1 142232Z 24008KT 37/04 A2992 RMK A01 T03670043  RH  013%=      5-min Rain = 0
KVA1 142233Z 25007KT 37/04 A2992 RMK A01 T03670042  RH  013%=      5-min Rain = 0
KVA1 142234Z 25008G14KT 37/04 A2992 RMK A01 T03680042  RH  013%=      5-min Rain = 0
KVA1 142235Z 25012KT 37/05 A2992 RMK A01 T03680045  RH  014%=      5-min Rain = 0
KVA1 142236Z 25007KT 37/05 A2992 RMK A01 T03670049  RH  014%=      5-min Rain = 0
KVA1 142237Z 23008KT 37/05 A2992 RMK A01 T03680051  RH  014%=      5-min Rain = 0
KVA1 142238Z 24009KT 37/05 A2992 RMK A01 T03720052  RH  014%=      5-min Rain = 0
KVA1 142239Z 24010KT 37/05 A2992 RMK A01 T03730051  RH  014%=      5-min Rain = 0
KVA1 142240Z 24011KT 37/05 A2992 RMK A01 T03740048  RH  013%=      5-min Rain = 0
KVA1 142241Z 24010KT 37/04 A2992 RMK A01 T03730035  RH  012%=      5-min Rain = 0
KVA1 142242Z 26011KT 37/04 A2992 RMK A01 T03720035  RH  012%=      5-min Rain = 0
KVA1 142243Z 23014G20KT 37/03 A2992 RMK A01 T03710033  RH  012%=      5-min Rain = 0
KVA1 142244Z 25015G21KT 37/04 A2992 RMK A01 T03730036  RH  012%=      5-min Rain = 0
KVA1 142245Z 25015KT 37/03 A2992 RMK A01 T03730031  RH  012%=      5-min Rain = 0
KVA1 142246Z 25014G19KT 37/04 A2992 RMK A01 T03710035  RH  012%=      5-min Rain = 0
KVA1 142247Z 24009KT 37/03 A2992 RMK A01 T03720034  RH  012%=      5-min Rain = 0
KVA1 142248Z 25011KT 37/03 A2992 RMK A01 T03730033  RH  012%=      5-min Rain = 0
KVA1 142249Z 25011G16KT 37/03 A2992 RMK A01 T03730028  RH  012%=      5-min Rain = 0
KVA1 142250Z 26012KT 37/03 A2992 RMK A01 T03720025  RH  012%=      5-min Rain = 0
KVA1 142251Z 26015G20KT 37/02 A2992 RMK A01 T03700024  RH  012%=      5-min Rain = 0
KVA1 142252Z 26015KT 37/02 A2992 RMK A01 T03670020  RH  011%=      5-min Rain = 0
KVA1 142253Z 26013KT 37/02 A2991 RMK A01 T03660020  RH  012%=      5-min Rain = 0
KVA1 142254Z 28013KT 37/02 A2991 RMK A01 T03660022  RH  012%=      5-min Rain = 0
KVA1 142255Z 27016KT 37/02 A2991 RMK A01 T03650022  RH  012%=      5-min Rain = 0
KVA1 142256Z 27013G19KT 36/02 A2991 RMK A01 T03630020  RH  012%=      5-min Rain = 0
KVA1 142257Z 28014KT 36/02 A2991 RMK A01 T03640022  RH  012%=      5-min Rain = 0
KVA1 142258Z 27014G21KT 36/02 A2991 RMK A01 T03640022  RH  012%=      5-min Rain = 0
KVA1 142259Z 27015KT 36/02 A2991 RMK A01 T03600021  RH  012%=      5-min Rain = 0
KVA1 142300Z 27014G19KT 36/02 A2991 RMK A01 T03570020  RH  012%=      5-min Rain = 0
KVA1 142301Z 26012KT 36/02 A2991 RMK A01 T03550020  RH  012%=      5-min Rain = 0
KVA1 142302Z 26013G18KT 36/02 A2991 RMK A01 T03550020  RH  012%=      5-min Rain = 0
KVA1 142303Z 26013KT 36/02 A2991 RMK A01 T03590022  RH  012%=      5-min Rain = 0
KVA1 142304Z 23012KT 36/02 A2991 RMK A01 T03610021  RH  012%=      5-min Rain = 0
KVA1 142305Z 24011KT 36/02 A2991 RMK A01 T03640022  RH  012%=      5-min Rain = 0
KVA1 142306Z 25010KT 37/02 A2991 RMK A01 T03650022  RH  012%=      5-min Rain = 0
KVA1 142307Z 22013KT 37/02 A2991 RMK A01 T03660023  RH  012%=      5-min Rain = 0
KVA1 142308Z 22013G18KT 37/02 A2991 RMK A01 T03660023  RH  012%=      5-min Rain = 0
KVA1 142309Z 23013KT 37/02 A2991 RMK A01 T03650022  RH  012%=      5-min Rain = 0
KVA1 142310Z 24012KT 37/02 A2991 RMK A01 T03660023  RH  012%=      5-min Rain = 0
KVA1 142311Z 23010G15KT 37/02 A2991 RMK A01 T03660021  RH  012%=      5-min Rain = 0
KVA1 142312Z 23010KT 37/02 A299 RMK A01 T03670021  RH  011%=      5-min Rain = 0
KVA1 142313Z 23009KT 37/02 A299 RMK A01 T03670021  RH  012%=      5-min Rain = 0
KVA1 142314Z 23011KT 37/02 A299 RMK A01 T03670023  RH  012%=      5-min Rain = 0
KVA1 142315Z 24005KT 37/02 A299 RMK A01 T03680024  RH  012%=      5-min Rain = 0
KVA1 142316Z 23010KT 37/02 A299 RMK A01 T03690024  RH  012%=      5-min Rain = 0
KVA1 142317Z 23011G16KT 37/02 A299 RMK A01 T03680023  RH  012%=      5-min Rain = 0
KVA1 142318Z 25011KT 37/02 A299 RMK A01 T03680022  RH  012%=      5-min Rain = 0
KVA1 142319Z 25008KT 37/02 A299 RMK A01 T03670023  RH  012%=      5-min Rain = 0
KVA1 142320Z 24009G15KT 37/02 A299 RMK A01 T03680024  RH  012%=      5-min Rain = 0
KVA1 142321Z 25012G17KT 37/03 A299 RMK A01 T03700027  RH  012%=      5-min Rain = 0
KVA1 142322Z 27016G21KT 37/02 A299 RMK A01 T03710023  RH  011%=      5-min Rain = 0
KVA1 142323Z 28015G22KT 37/02 A299 RMK A01 T03670021  RH  012%=      5-min Rain = 0
KVA1 142324Z 28016KT 37/02 A299 RMK A01 T03650023  RH  012%=      5-min Rain = 0
KVA1 142325Z 26015KT 37/02 A299 RMK A01 T03650022  RH  012%=      5-min Rain = 0
KVA1 142326Z 27015KT 37/02 A299 RMK A01 T03650023  RH  012%=      5-min Rain = 0
KVA1 142327Z 28013KT 37/02 A299 RMK A01 T03650022  RH  012%=      5-min Rain = 0
KVA1 142328Z 28013KT 37/02 A299 RMK A01 T03650022  RH  012%=      5-min Rain = 0
KVA1 142329Z 30012KT 36/02 A299 RMK A01 T03640023  RH  012%=      5-min Rain = 0
KVA1 142330Z 27012KT 36/02 A299 RMK A01 T03640023  RH  012%=      5-min Rain = 0
KVA1 142331Z 26010KT 36/02 A299 RMK A01 T03630022  RH  012%=      5-min Rain = 0
KVA1 142332Z 28007KT 36/02 A299 RMK A01 T03630023  RH  012%=      5-min Rain = 0
KVA1 142333Z 28007KT 36/02 A299 RMK A01 T03630024  RH  012%=      5-min Rain = 0
KVA1 142334Z 28008KT 36/03 A2989 RMK A01 T03640025  RH  012%=      5-min Rain = 0
KVA1 142335Z 27008KT 37/03 A2989 RMK A01 T03650026  RH  012%=      5-min Rain = 0
KVA1 142336Z 25011G16KT 37/03 A2989 RMK A01 T03660026  RH  012%=      5-min Rain = 0
KVA1 142337Z 23012KT 37/03 A2989 RMK A01 T03670027  RH  012%=      5-min Rain = 0
KVA1 142338Z 22009G14KT 37/03 A2989 RMK A01 T03680028  RH  012%=      5-min Rain = 0
KVA1 142339Z 23010KT 37/03 A2989 RMK A01 T03680028  RH  012%=      5-min Rain = 0
KVA1 142340Z 22011KT 37/03 A2989 RMK A01 T03680030  RH  012%=      5-min Rain = 0
KVA1 142341Z 23013KT 37/03 A2989 RMK A01 T03670026  RH  012%=      5-min Rain = 0
KVA1 142342Z 24013KT 37/03 A2989 RMK A01 T03650026  RH  012%=      5-min Rain = 0
KVA1 142343Z 26013KT 36/03 A2989 RMK A01 T03640026  RH  012%=      5-min Rain = 0
KVA1 142344Z 26012G17KT 36/03 A299 RMK A01 T03640026  RH  012%=      5-min Rain = 0
KVA1 142345Z 26014KT 36/03 A299 RMK A01 T03640025  RH  012%=      5-min Rain = 0
KVA1 142346Z 26014KT 36/03 A299 RMK A01 T03640026  RH  012%=      5-min Rain = 0
KVA1 142347Z 25012KT 36/03 A2989 RMK A01 T03640025  RH  012%=      5-min Rain = 0
KVA1 142348Z 23010KT 36/02 A2989 RMK A01 T03610023  RH  012%=      5-min Rain = 0
KVA1 142349Z 24009KT 36/02 A2989 RMK A01 T03580023  RH  012%=      5-min Rain = 0
KVA1 142350Z 25012KT 36/03 A2989 RMK A01 T03580025  RH  012%=      5-min Rain = 0
KVA1 142351Z 26016G21KT 36/03 A2989 RMK A01 T03610028  RH  012%=      5-min Rain = 0
KVA1 142352Z 27017KT 36/03 A2989 RMK A01 T03620027  RH  012%=      5-min Rain = 0
KVA1 142353Z 27017KT 36/03 A2989 RMK A01 T03620027  RH  012%=      5-min Rain = 0
KVA1 142354Z 27019KT 36/03 A2989 RMK A01 T03620027  RH  012%=      5-min Rain = 0
KVA1 142355Z 29016G21KT 36/03 A2989 RMK A01 T03600027  RH  012%=      5-min Rain = 0
KVA1 142356Z 28017G22KT 36/03 A2989 RMK A01 T03600027  RH  013%=      5-min Rain = 0
KVA1 142357Z 27013KT 36/03 A2989 RMK A01 T03590027  RH  013%=      5-min Rain = 0
KVA1 142358Z 27012G19KT 36/03 A2989 RMK A01 T03600029  RH  013%=      5-min Rain = 0
KVA1 142359Z 26016G21KT 36/03 A2989 RMK A01 T03610028  RH  013%=      5-min Rain = 0
KVA1 150000Z 27014KT 36/03 A2989 RMK A01 T03610028  RH  013%=      5-min Rain = 0
KVA1 150001Z 27014KT 36/03 A2989 RMK A01 T03600027  RH  012%=      5-min Rain = 0
KVA1 150002Z 26013KT 36/03 A2989 RMK A01 T03600028  RH  013%=      5-min Rain = 0
KVA1 150003Z 26014KT 36/03 A2989 RMK A01 T03610028  RH  013%=      5-min Rain = 0
KVA1 150004Z 26013G18KT 36/03 A2989 RMK A01 T03600026  RH  012%=      5-min Rain = 0
KVA1 150005Z 28010KT 36/03 A2989 RMK A01 T03590027  RH  013%=      5-min Rain = 0
KVA1 150006Z 27012KT 36/03 A2989 RMK A01 T03590029  RH  013%=      5-min Rain = 0
KVA1 150007Z 25010KT 36/03 A2989 RMK A01 T03600029  RH  013%=      5-min Rain = 0
KVA1 150008Z 25009KT 36/03 A2989 RMK A01 T03620029  RH  013%=      5-min Rain = 0
KVA1 150009Z 26010KT 36/03 A2989 RMK A01 T03610027  RH  012%=      5-min Rain = 0
KVA1 150010Z 27007KT 36/03 A2989 RMK A01 T03590028  RH  013%=      5-min Rain = 0
KVA1 150011Z 26008KT 36/03 A2989 RMK A01 T03590029  RH  013%=      5-min Rain = 0
KVA1 150012Z 25009KT 36/03 A2988 RMK A01 T03590029  RH  013%=      5-min Rain = 0
KVA1 150013Z 24010KT 36/03 A2988 RMK A01 T03600029  RH  013%=      5-min Rain = 0
KVA1 150014Z 24009G14KT 36/03 A2988 RMK A01 T03600029  RH  013%=      5-min Rain = 0
KVA1 150015Z 22010KT 36/03 A2988 RMK A01 T03610028  RH  013%=      5-min Rain = 0
KVA1 150016Z 24011KT 36/03 A2988 RMK A01 T03600029  RH  013%=      5-min Rain = 0
KVA1 150017Z 24011KT 36/03 A2988 RMK A01 T03600028  RH  013%=      5-min Rain = 0
KVA1 150018Z 24008KT 36/03 A2988 RMK A01 T03600028  RH  013%=      5-min Rain = 0
KVA1 150019Z 24009KT 36/03 A2988 RMK A01 T03600028  RH  013%=      5-min Rain = 0
KVA1 150020Z 23009KT 36/03 A2988 RMK A01 T03590027  RH  013%=      5-min Rain = 0
KVA1 150021Z 22006KT 36/03 A2988 RMK A01 T03580027  RH  013%=      5-min Rain = 0
KVA1 150022Z 27010G21KT 36/03 A2988 RMK A01 T03580028  RH  013%=      5-min Rain = 0
KVA1 150023Z 28011KT 36/03 A2988 RMK A01 T03590025  RH  012%=      5-min Rain = 0
KVA1 150024Z 27015G22KT 36/02 A2988 RMK A01 T03590021  RH  012%=      5-min Rain = 0
KVA1 150025Z 27015KT 36/02 A2988 RMK A01 T03590016  RH  012%=      5-min Rain = 0
KVA1 150026Z 26014KT 36/01 A2988 RMK A01 T03600012  RH  011%=      5-min Rain = 0
KVA1 150027Z 26014G21KT 36/01 A2988 RMK A01 T03600010  RH  011%=      5-min Rain = 0
KVA1 150028Z 25011KT 36/01 A2988 RMK A01 T03600011  RH  011%=      5-min Rain = 0
KVA1 150029Z 25014KT 36/01 A2988 RMK A01 T03600012  RH  011%=      5-min Rain = 0
KVA1 150030Z 25014KT 36/01 A2988 RMK A01 T03600011  RH  011%=      5-min Rain = 0
KVA1 150031Z 26013KT 36/01 A2988 RMK A01 T03600011  RH  011%=      5-min Rain = 0
KVA1 150032Z 26014KT 36/01 A2988 RMK A01 T03590010  RH  011%=      5-min Rain = 0
KVA1 150033Z 26014KT 36/01 A2988 RMK A01 T03590010  RH  011%=      5-min Rain = 0
KVA1 150034Z 25015KT 36/01 A2988 RMK A01 T03590009  RH  011%=      5-min Rain = 0
KVA1 150035Z 24012KT 36/01 A2988 RMK A01 T03580009  RH  011%=      5-min Rain = 0
KVA1 150036Z 24008KT 36/01 A2988 RMK A01 T03580010  RH  011%=      5-min Rain = 0
KVA1 150037Z 24012G22KT 36/01 A2988 RMK A01 T03590011  RH  011%=      5-min Rain = 0
KVA1 150038Z 24013KT 36/01 A2988 RMK A01 T03590009  RH  011%=      5-min Rain = 0
KVA1 150039Z 24013G20KT 36/01 A2988 RMK A01 T03590010  RH  011%=      5-min Rain = 0
KVA1 150040Z 24013G18KT 36/01 A2988 RMK A01 T03590009  RH  011%=      5-min Rain = 0
KVA1 150041Z 23008KT 36/01 A2988 RMK A01 T03590011  RH  011%=      5-min Rain = 0
KVA1 150042Z 23010KT 36/01 A2988 RMK A01 T03590012  RH  011%=      5-min Rain = 0
KVA1 150043Z 24011KT 36/01 A2988 RMK A01 T03590012  RH  011%=      5-min Rain = 0
KVA1 150044Z 26011KT 36/01 A2988 RMK A01 T03600011  RH  011%=      5-min Rain = 0
KVA1 150045Z 26013KT 36/01 A2988 RMK A01 T03580009  RH  011%=      5-min Rain = 0
KVA1 150046Z 27010KT 36/01 A2988 RMK A01 T03570010  RH  011%=      5-min Rain = 0
KVA1 150047Z 26013KT 36/01 A2988 RMK A01 T03570011  RH  011%=      5-min Rain = 0
KVA1 150048Z 28010G15KT 36/01 A2988 RMK A01 T03570011  RH  011%=      5-min Rain = 0
KVA1 150049Z 27012KT 36/01 A2988 RMK A01 T03560011  RH  011%=      5-min Rain = 0
KVA1 150050Z 27012G18KT 36/01 A2988 RMK A01 T03570012  RH  011%=      5-min Rain = 0
KVA1 150051Z 27012KT 36/01 A2988 RMK A01 T03560011  RH  011%=      5-min Rain = 0
KVA1 150052Z 26011KT 36/01 A2988 RMK A01 T03550011  RH  011%=      5-min Rain = 0
KVA1 150053Z 27012KT 36/01 A2988 RMK A01 T03550010  RH  011%=      5-min Rain = 0
KVA1 150054Z 27009KT 36/01 A2988 RMK A01 T03550009  RH  011%=      5-min Rain = 0
KVA1 150055Z 26009KT 36/01 A2988 RMK A01 T03550010  RH  011%=      5-min Rain = 0
KVA1 150056Z 26011G16KT 36/01 A2988 RMK A01 T03550011  RH  011%=      5-min Rain = 0
KVA1 150057Z 28010G16KT 36/01 A2988 RMK A01 T03560009  RH  011%=      5-min Rain = 0
KVA1 150058Z 27012KT 36/01 A2988 RMK A01 T03550009  RH  011%=      5-min Rain = 0
KVA1 150059Z 28010G15KT 36/01 A2988 RMK A01 T03550008  RH  011%=      5-min Rain = 0
KVA1 150100Z 26011KT 35/01 A2989 RMK A01 T03540010  RH  011%=      5-min Rain = 0
KVA1 150101Z 27011KT 35/01 A2988 RMK A01 T03540009  RH  011%=      5-min Rain = 0
KVA1 150102Z 26013KT 35/01 A2989 RMK A01 T03540007  RH  011%=      5-min Rain = 0
KVA1 150103Z 26012KT 35/01 A2989 RMK A01 T03530006  RH  011%=      5-min Rain = 0
KVA1 150104Z 27014KT 35/01 A2989 RMK A01 T03530006  RH  011%=      5-min Rain = 0
KVA1 150105Z 27014KT 35/01 A2989 RMK A01 T03520006  RH  011%=      5-min Rain = 0
KVA1 150106Z 26014KT 35/01 A2989 RMK A01 T03520006  RH  011%=      5-min Rain = 0
KVA1 150107Z 26013G18KT 35/01 A2989 RMK A01 T03520007  RH  011%=      5-min Rain = 0
KVA1 150108Z 28013G18KT 35/01 A2989 RMK A01 T03520008  RH  011%=      5-min Rain = 0
KVA1 150109Z 28014G19KT 35/01 A2989 RMK A01 T03520008  RH  011%=      5-min Rain = 0
KVA1 150110Z 27010KT 35/01 A2989 RMK A01 T03510007  RH  011%=      5-min Rain = 0
KVA1 150111Z 27012G19KT 35/01 A2989 RMK A01 T03510007  RH  011%=      5-min Rain = 0
KVA1 150112Z 27013KT 35/01 A2989 RMK A01 T03510006  RH  011%=      5-min Rain = 0
KVA1 150113Z 27008KT 35/01 A2989 RMK A01 T03510006  RH  011%=      5-min Rain = 0
KVA1 150114Z 27013KT 35/01 A2989 RMK A01 T03510007  RH  011%=      5-min Rain = 0
KVA1 150115Z 27013KT 35/01 A2989 RMK A01 T03510007  RH  011%=      5-min Rain = 0
KVA1 150116Z 27011KT 35/01 A2989 RMK A01 T03510007  RH  011%=      5-min Rain = 0
KVA1 150117Z 25010KT 35/01 A2989 RMK A01 T03510007  RH  011%=      5-min Rain = 0
KVA1 150118Z 25009KT 35/01 A2989 RMK A01 T03510007  RH  011%=      5-min Rain = 0
KVA1 150119Z 25009KT 35/01 A2989 RMK A01 T03510008  RH  011%=      5-min Rain = 0
KVA1 150120Z 25012G19KT 35/01 A2989 RMK A01 T03500009  RH  012%=      5-min Rain = 0
KVA1 150121Z 25015G21KT 35/01 A2989 RMK A01 T03500009  RH  012%=      5-min Rain = 0
KVA1 150122Z 26012KT 35/01 A2989 RMK A01 T03490007  RH  012%=      5-min Rain = 0
KVA1 150123Z 26010KT 35/01 A2989 RMK A01 T03490008  RH  012%=      5-min Rain = 0
KVA1 150124Z 26009KT 35/01 A2989 RMK A01 T03490008  RH  012%=      5-min Rain = 0
KVA1 150125Z 26008KT 35/01 A2989 RMK A01 T03490009  RH  012%=      5-min Rain = 0
KVA1 150126Z 26008KT 35/01 A2989 RMK A01 T03480009  RH  012%=      5-min Rain = 0
KVA1 150127Z 25010KT 35/01 A2989 RMK A01 T03480009  RH  012%=      5-min Rain = 0
KVA1 150128Z 26006KT 35/01 A2989 RMK A01 T03480009  RH  012%=      5-min Rain = 0
KVA1 150129Z 26009KT 35/01 A2989 RMK A01 T03470010  RH  012%=      5-min Rain = 0
KVA1 150130Z 27008KT 35/01 A2989 RMK A01 T03470009  RH  012%=      5-min Rain = 0
KVA1 150131Z 25010KT 35/01 A2989 RMK A01 T03470009  RH  012%=      5-min Rain = 0
KVA1 150132Z 25009KT 35/01 A2989 RMK A01 T03460008  RH  012%=      5-min Rain = 0
KVA1 150133Z 26008KT 35/01 A2989 RMK A01 T03460008  RH  012%=      5-min Rain = 0
KVA1 150134Z 26008KT 35/01 A2989 RMK A01 T03460008  RH  012%=      5-min Rain = 0
KVA1 150135Z 25007KT 35/01 A2989 RMK A01 T03450009  RH  012%=      5-min Rain = 0
KVA1 150136Z 25009KT 35/01 A2989 RMK A01 T03450009  RH  012%=      5-min Rain = 0
KVA1 150137Z 26009G14KT 34/01 A2989 RMK A01 T03440009  RH  012%=      5-min Rain = 0
KVA1 150138Z 26008KT 34/01 A2989 RMK A01 T03440010  RH  012%=      5-min Rain = 0
KVA1 150139Z 25010KT 34/01 A2989 RMK A01 T03430009  RH  012%=      5-min Rain = 0
KVA1 150140Z 26009KT 34/01 A2989 RMK A01 T03430009  RH  012%=      5-min Rain = 0
KVA1 150141Z 26008KT 34/01 A2989 RMK A01 T03430008  RH  012%=      5-min Rain = 0
KVA1 150142Z 25007KT 34/01 A2989 RMK A01 T03430009  RH  012%=      5-min Rain = 0
KVA1 150143Z 25007KT 34/01 A2989 RMK A01 T03420010  RH  012%=      5-min Rain = 0
KVA1 150144Z 26007KT 34/01 A2989 RMK A01 T03410010  RH  012%=      5-min Rain = 0
KVA1 150145Z 26007KT 34/01 A2989 RMK A01 T03410010  RH  012%=      5-min Rain = 0
KVA1 150146Z 25007KT 34/01 A2989 RMK A01 T03400010  RH  012%=      5-min Rain = 0
KVA1 150147Z 26007G12KT 34/01 A2989 RMK A01 T03390010  RH  012%=      5-min Rain = 0
KVA1 150148Z 27009KT 34/01 A2989 RMK A01 T03390009  RH  012%=      5-min Rain = 0
KVA1 150149Z 27009KT 34/01 A2989 RMK A01 T03390008  RH  012%=      5-min Rain = 0
KVA1 150150Z 27009KT 34/01 A2989 RMK A01 T03390007  RH  012%=      5-min Rain = 0
KVA1 150151Z 26007KT 34/01 A2989 RMK A01 T03390008  RH  012%=      5-min Rain = 0
KVA1 150152Z 26006KT 34/01 A2989 RMK A01 T03380008  RH  012%=      5-min Rain = 0
KVA1 150153Z 27008KT 34/01 A2989 RMK A01 T03370009  RH  012%=      5-min Rain = 0
KVA1 150154Z 26008KT 34/01 A2989 RMK A01 T03370007  RH  012%=      5-min Rain = 0
KVA1 150155Z 26009KT 34/01 A2989 RMK A01 T03370008  RH  012%=      5-min Rain = 0
KVA1 150156Z 28009KT 34/01 A2989 RMK A01 T03370008  RH  012%=      5-min Rain = 0
KVA1 150157Z 28008KT 34/01 A2989 RMK A01 T03360008  RH  012%=      5-min Rain = 0
KVA1 150158Z 28006KT 34/01 A2989 RMK A01 T03360008  RH  012%=      5-min Rain = 0
KVA1 150159Z 28008KT 34/01 A2989 RMK A01 T03350009  RH  013%=      5-min Rain = 0
KVA1 150200Z 28008KT 33/01 A2989 RMK A01 T03340008  RH  013%=      5-min Rain = 0
KVA1 150201Z 28007KT 33/01 A2989 RMK A01 T03340008  RH  013%=      5-min Rain = 0
KVA1 150202Z 28008KT 33/01 A2989 RMK A01 T03330008  RH  013%=      5-min Rain = 0
KVA1 150203Z 28007KT 33/01 A2989 RMK A01 T03330008  RH  013%=      5-min Rain = 0
KVA1 150204Z 28008KT 33/01 A2989 RMK A01 T03320009  RH  013%=      5-min Rain = 0
KVA1 150205Z 28006KT 33/01 A2989 RMK A01 T03310009  RH  013%=      5-min Rain = 0
KVA1 150206Z 28007KT 33/01 A2989 RMK A01 T03300009  RH  013%=      5-min Rain = 0
KVA1 150207Z 28006KT 33/01 A2989 RMK A01 T03290009  RH  013%=      5-min Rain = 0
KVA1 150208Z 28007KT 33/01 A2989 RMK A01 T03290009  RH  013%=      5-min Rain = 0
KVA1 150209Z 28007KT 33/01 A2989 RMK A01 T03280009  RH  013%=      5-min Rain = 0
KVA1 150210Z 28006KT 33/01 A2989 RMK A01 T03280009  RH  013%=      5-min Rain = 0
KVA1 150211Z 28006KT 33/01 A2989 RMK A01 T03270010  RH  013%=      5-min Rain = 0
KVA1 150212Z 28006KT 33/01 A2989 RMK A01 T03260010  RH  013%=      5-min Rain = 0
KVA1 150213Z 28005KT 33/01 A2989 RMK A01 T03250010  RH  013%=      5-min Rain = 0
KVA1 150214Z 27005KT 32/01 A2989 RMK A01 T03240011  RH  014%=      5-min Rain = 0
KVA1 150215Z 27004KT 32/01 A2989 RMK A01 T03220011  RH  014%=      5-min Rain = 0
KVA1 150216Z 27004KT 32/01 A2989 RMK A01 T03210012  RH  014%=      5-min Rain = 0
KVA1 150217Z 28004KT 32/01 A2989 RMK A01 T03200012  RH  014%=      5-min Rain = 0
KVA1 150218Z 28004KT 32/01 A2989 RMK A01 T03190012  RH  014%=      5-min Rain = 0
KVA1 150219Z 29005KT 32/01 A2989 RMK A01 T03180012  RH  014%=      5-min Rain = 0
KVA1 150220Z 28004KT 32/01 A2989 RMK A01 T03180013  RH  014%=      5-min Rain = 0
KVA1 150221Z 27004KT 32/01 A2989 RMK A01 T03160013  RH  014%=      5-min Rain = 0
KVA1 150222Z 28004KT 32/01 A299 RMK A01 T03150013  RH  014%=      5-min Rain = 0
KVA1 150223Z 28004KT 31/01 A299 RMK A01 T03140013  RH  015%=      5-min Rain = 0
KVA1 150224Z 28004KT 31/01 A299 RMK A01 T03130014  RH  015%=      5-min Rain = 0
KVA1 150225Z 27004KT 31/02 A299 RMK A01 T03120015  RH  015%=      5-min Rain = 0
KVA1 150226Z 28004KT 31/02 A299 RMK A01 T03100016  RH  015%=      5-min Rain = 0
KVA1 150227Z 29004KT 31/02 A299 RMK A01 T03090016  RH  015%=      5-min Rain = 0
KVA1 150228Z 27004KT 31/02 A299 RMK A01 T03080016  RH  015%=      5-min Rain = 0
KVA1 150229Z 28004KT 31/02 A299 RMK A01 T03070018  RH  016%=      5-min Rain = 0
KVA1 150230Z 28004KT 31/02 A299 RMK A01 T03060018  RH  016%=      5-min Rain = 0
KVA1 150231Z 28004KT 30/02 A299 RMK A01 T03040019  RH  016%=      5-min Rain = 0
KVA1 150232Z 28004KT 30/02 A299 RMK A01 T03030018  RH  016%=      5-min Rain = 0
KVA1 150233Z 27004KT 30/02 A299 RMK A01 T03020018  RH  016%=      5-min Rain = 0
KVA1 150234Z 27004KT 30/02 A299 RMK A01 T03010020  RH  017%=      5-min Rain = 0
KVA1 150235Z 27004KT 30/02 A299 RMK A01 T02990019  RH  017%=      5-min Rain = 0
KVA1 150236Z 27004KT 30/02 A299 RMK A01 T02980021  RH  017%=      5-min Rain = 0
KVA1 150237Z 28004KT 30/02 A299 RMK A01 T02980021  RH  017%=      5-min Rain = 0
KVA1 150238Z 28004KT 30/02 A299 RMK A01 T02970020  RH  017%=      5-min Rain = 0
KVA1 150239Z 28004KT 30/02 A299 RMK A01 T02960019  RH  017%=      5-min Rain = 0
KVA1 150240Z 28004KT 30/02 A299 RMK A01 T02970019  RH  017%=      5-min Rain = 0
KVA1 150241Z 27005KT 30/02 A299 RMK A01 T02970020  RH  017%=      5-min Rain = 0
KVA1 150242Z 27005KT 30/02 A299 RMK A01 T02960022  RH  017%=      5-min Rain = 0
KVA1 150243Z 27004KT 30/02 A299 RMK A01 T02950023  RH  018%=      5-min Rain = 0
KVA1 150244Z 27005KT 29/02 A299 RMK A01 T02940024  RH  018%=      5-min Rain = 0
KVA1 150245Z 26005KT 29/03 A2991 RMK A01 T02930025  RH  018%=      5-min Rain = 0
KVA1 150246Z 26004KT 29/03 A2991 RMK A01 T02930028  RH  018%=      5-min Rain = 0
KVA1 150247Z 25004KT 29/03 A2991 RMK A01 T02920027  RH  018%=      5-min Rain = 0
KVA1 150248Z 20005KT 29/03 A2991 RMK A01 T02920029  RH  019%=      5-min Rain = 0
KVA1 150249Z 17008KT 29/03 A2991 RMK A01 T02920033  RH  019%=      5-min Rain = 0
KVA1 150250Z 16008KT 29/03 A2991 RMK A01 T02920028  RH  018%=      5-min Rain = 0
KVA1 150251Z 17007KT 29/05 A2991 RMK A01 T02940045  RH  021%=      5-min Rain = 0
KVA1 150252Z 17009KT 30/06 A2991 RMK A01 T02970061  RH  022%=      5-min Rain = 0
KVA1 150253Z 19006KT 30/06 A2991 RMK A01 T03010060  RH  022%=      5-min Rain = 0
KVA1 150254Z 18007KT 30/06 A2991 RMK A01 T03030063  RH  022%=      5-min Rain = 0
KVA1 150255Z 17013G18KT 30/08 A2991 RMK A01 T03040077  RH  024%=      5-min Rain = 0
KVA1 150256Z 17011KT 31/09 A2991 RMK A01 T03050085  RH  025%=      5-min Rain = 0
KVA1 150257Z 18008KT 31/09 A2991 RMK A01 T03070086  RH  025%=      5-min Rain = 0
KVA1 150258Z 18007KT 31/09 A2991 RMK A01 T03080086  RH  025%=      5-min Rain = 0
KVA1 150259Z 18008KT 31/09 A2992 RMK A01 T03080086  RH  025%=      5-min Rain = 0
KVA1 150300Z 19011KT 31/09 A2991 RMK A01 T03070088  RH  026%=      5-min Rain = 0
KVA1 150301Z 18013KT 31/09 A2991 RMK A01 T03070089  RH  026%=      5-min Rain = 0
KVA1 150302Z 18011KT 31/09 A2992 RMK A01 T03070090  RH  026%=      5-min Rain = 0
KVA1 150303Z 18009KT 31/09 A2992 RMK A01 T03070088  RH  026%=      5-min Rain = 0
KVA1 150304Z 18011KT 31/09 A2992 RMK A01 T03070085  RH  025%=      5-min Rain = 0
KVA1 150305Z 18011KT 31/09 A2992 RMK A01 T03070085  RH  025%=      5-min Rain = 0
KVA1 150306Z 18009KT 31/09 A2992 RMK A01 T03070086  RH  025%=      5-min Rain = 0
KVA1 150307Z 18008KT 31/09 A2992 RMK A01 T03060087  RH  026%=      5-min Rain = 0
KVA1 150308Z 19009KT 31/09 A2992 RMK A01 T03050089  RH  026%=      5-min Rain = 0
KVA1 150309Z 18008KT 30/09 A2992 RMK A01 T03040090  RH  026%=      5-min Rain = 0
KVA1 150310Z 18007KT 30/09 A2992 RMK A01 T03030090  RH  027%=      5-min Rain = 0
KVA1 150311Z 18008KT 30/09 A2992 RMK A01 T03020090  RH  027%=      5-min Rain = 0
KVA1 150312Z 19007KT 30/09 A2992 RMK A01 T03020091  RH  027%=      5-min Rain = 0
KVA1 150313Z 19006KT 30/09 A2992 RMK A01 T03020091  RH  027%=      5-min Rain = 0
KVA1 150314Z 21006KT 30/09 A2992 RMK A01 T03020091  RH  027%=      5-min Rain = 0
KVA1 150315Z 22005KT 30/09 A2992 RMK A01 T03020091  RH  027%=      5-min Rain = 0
KVA1 150316Z 22004KT 30/09 A2992 RMK A01 T03000091  RH  027%=      5-min Rain = 0
KVA1 150317Z 23004KT 30/09 A2992 RMK A01 T02990090  RH  027%=      5-min Rain = 0
KVA1 150318Z 25005KT 30/09 A2992 RMK A01 T02980091  RH  027%=      5-min Rain = 0
KVA1 150319Z 25006KT 30/09 A2992 RMK A01 T02970090  RH  027%=      5-min Rain = 0
KVA1 150320Z 24006KT 30/09 A2993 RMK A01 T02970090  RH  028%=      5-min Rain = 0
KVA1 150321Z 22006KT 30/09 A2992 RMK A01 T02960090  RH  028%=      5-min Rain = 0
KVA1 150322Z 21006KT 30/09 A2993 RMK A01 T02950091  RH  028%=      5-min Rain = 0
KVA1 150323Z 21007KT 29/09 A2993 RMK A01 T02940091  RH  028%=      5-min Rain = 0
KVA1 150324Z 19008KT 29/09 A2993 RMK A01 T02940092  RH  028%=      5-min Rain = 0
KVA1 150325Z 19009KT 29/09 A2993 RMK A01 T02930093  RH  029%=      5-min Rain = 0
KVA1 150326Z 19009KT 29/09 A2993 RMK A01 T02940093  RH  029%=      5-min Rain = 0
KVA1 150327Z 19008KT 30/09 A2993 RMK A01 T02950094  RH  029%=      5-min Rain = 0
KVA1 150328Z 19008KT 30/09 A2993 RMK A01 T02950093  RH  028%=      5-min Rain = 0
KVA1 150329Z 19007KT 30/09 A2993 RMK A01 T02960093  RH  028%=      5-min Rain = 0
KVA1 150330Z 20007KT 30/09 A2993 RMK A01 T02960093  RH  028%=      5-min Rain = 0
KVA1 150331Z 20005KT 30/09 A2993 RMK A01 T02960094  RH  028%=      5-min Rain = 0
KVA1 150332Z 20005KT 30/09 A2993 RMK A01 T02950093  RH  028%=      5-min Rain = 0
KVA1 150333Z 21004KT 29/09 A2993 RMK A01 T02940093  RH  028%=      5-min Rain = 0
KVA1 150334Z 22004KT 29/09 A2993 RMK A01 T02930092  RH  029%=      5-min Rain = 0
KVA1 150335Z 22004KT 29/09 A2993 RMK A01 T02920092  RH  029%=      5-min Rain = 0
KVA1 150336Z 22004KT 29/09 A2993 RMK A01 T02900091  RH  029%=      5-min Rain = 0
KVA1 150337Z 21005KT 29/09 A2993 RMK A01 T02880091  RH  029%=      5-min Rain = 0
KVA1 150338Z 21005KT 29/09 A2993 RMK A01 T02870092  RH  029%=      5-min Rain = 0
KVA1 150339Z 21006KT 29/09 A2993 RMK A01 T02860092  RH  030%=      5-min Rain = 0
KVA1 150340Z 21005KT 29/09 A2993 RMK A01 T02860093  RH  030%=      5-min Rain = 0
KVA1 150341Z 21005KT 29/09 A2993 RMK A01 T02860093  RH  030%=      5-min Rain = 0
KVA1 150342Z 21006KT 29/09 A2993 RMK A01 T02860093  RH  030%=      5-min Rain = 0
KVA1 150343Z 22007KT 29/09 A2993 RMK A01 T02850092  RH  030%=      5-min Rain = 0
KVA1 150344Z 22008KT 28/09 A2993 RMK A01 T02840092  RH  030%=      5-min Rain = 0
KVA1 150345Z 21007KT 28/09 A2993 RMK A01 T02840092  RH  030%=      5-min Rain = 0
KVA1 150346Z 21007KT 29/09 A2993 RMK A01 T02850092  RH  030%=      5-min Rain = 0
KVA1 150347Z 21006KT 29/09 A2994 RMK A01 T02850092  RH  030%=      5-min Rain = 0
KVA1 150348Z 21007KT 29/09 A2994 RMK A01 T02850091  RH  030%=      5-min Rain = 0
KVA1 150349Z 22007KT 29/09 A2994 RMK A01 T02850091  RH  030%=      5-min Rain = 0
KVA1 150350Z 22006KT 29/09 A2994 RMK A01 T02850091  RH  030%=      5-min Rain = 0
KVA1 150351Z 21007KT 29/09 A2994 RMK A01 T02860091  RH  030%=      5-min Rain = 0
KVA1 150352Z 23005KT 29/09 A2994 RMK A01 T02850091  RH  030%=      5-min Rain = 0
KVA1 150353Z 24006KT 29/09 A2994 RMK A01 T02850091  RH  030%=      5-min Rain = 0
KVA1 150354Z 25005KT 28/09 A2994 RMK A01 T02830091  RH  030%=      5-min Rain = 0
KVA1 150355Z 24006KT 28/09 A2994 RMK A01 T02810091  RH  030%=      5-min Rain = 0
KVA1 150356Z 24005KT 28/09 A2994 RMK A01 T02810091  RH  030%=      5-min Rain = 0
KVA1 150357Z 23005KT 28/09 A2994 RMK A01 T02810091  RH  030%=      5-min Rain = 0
KVA1 150358Z 22005KT 28/09 A2994 RMK A01 T02810092  RH  031%=      5-min Rain = 0
KVA1 150359Z 21005KT 28/09 A2994 RMK A01 T02810092  RH  031%=      5-min Rain = 0
KVA1 150400Z 21005KT 28/09 A2994 RMK A01 T02810092  RH  031%=      5-min Rain = 0
KVA1 150401Z 21004KT 28/09 A2994 RMK A01 T02800092  RH  031%=      5-min Rain = 0
KVA1 150402Z 21004KT 28/09 A2994 RMK A01 T02800092  RH  031%=      5-min Rain = 0
KVA1 150403Z 21004KT 28/09 A2994 RMK A01 T02790092  RH  031%=      5-min Rain = 0
KVA1 150404Z 21003KT 28/09 A2994 RMK A01 T02780092  RH  031%=      5-min Rain = 0
KVA1 150405Z 20004KT 28/09 A2994 RMK A01 T02770092  RH  031%=      5-min Rain = 0
KVA1 150406Z 21004KT 28/09 A2994 RMK A01 T02760091  RH  031%=      5-min Rain = 0
KVA1 150407Z 21004KT 28/09 A2994 RMK A01 T02760092  RH  031%=      5-min Rain = 0
KVA1 150408Z 22004KT 28/09 A2994 RMK A01 T02760092  RH  031%=      5-min Rain = 0
KVA1 150409Z 22004KT 28/09 A2994 RMK A01 T02750091  RH  032%=      5-min Rain = 0
KVA1 150410Z 23004KT 27/09 A2994 RMK A01 T02730090  RH  032%=      5-min Rain = 0
KVA1 150411Z 23004KT 27/09 A2994 RMK A01 T02700090  RH  032%=      5-min Rain = 0
KVA1 150412Z 23005KT 27/09 A2994 RMK A01 T02680091  RH  033%=      5-min Rain = 0
KVA1 150413Z 22005KT 27/09 A2994 RMK A01 T02680091  RH  033%=      5-min Rain = 0
KVA1 150414Z 22006KT 27/09 A2994 RMK A01 T02680091  RH  033%=      5-min Rain = 0
KVA1 150415Z 22007KT 27/09 A2994 RMK A01 T02700092  RH  033%=      5-min Rain = 0
KVA1 150416Z 21007KT 27/09 A2994 RMK A01 T02730092  RH  032%=      5-min Rain = 0
KVA1 150417Z 21007KT 28/09 A2994 RMK A01 T02750093  RH  032%=      5-min Rain = 0
KVA1 150418Z 21007KT 28/09 A2994 RMK A01 T02770093  RH  031%=      5-min Rain = 0
KVA1 150419Z 21006KT 28/09 A2994 RMK A01 T02790093  RH  031%=      5-min Rain = 0
KVA1 150420Z 22007KT 28/09 A2994 RMK A01 T02790093  RH  031%=      5-min Rain = 0
KVA1 150421Z 22006KT 28/09 A2994 RMK A01 T02790093  RH  031%=      5-min Rain = 0
KVA1 150422Z 22006KT 28/09 A2994 RMK A01 T02800093  RH  031%=      5-min Rain = 0
KVA1 150423Z 22006KT 28/09 A2994 RMK A01 T02790093  RH  031%=      5-min Rain = 0
KVA1 150424Z 22006KT 28/09 A2994 RMK A01 T02780093  RH  031%=      5-min Rain = 0
KVA1 150425Z 22006KT 28/09 A2994 RMK A01 T02780093  RH  031%=      5-min Rain = 0
KVA1 150426Z 22006KT 28/09 A2994 RMK A01 T02780094  RH  032%=      5-min Rain = 0
KVA1 150427Z 24006KT 28/09 A2994 RMK A01 T02770094  RH  032%=      5-min Rain = 0
KVA1 150428Z 25006KT 28/09 A2994 RMK A01 T02750093  RH  032%=      5-min Rain = 0
KVA1 150429Z 25007KT 27/09 A2994 RMK A01 T02730094  RH  032%=      5-min Rain = 0
KVA1 150430Z 25007KT 27/09 A2994 RMK A01 T02710094  RH  033%=      5-min Rain = 0
KVA1 150431Z 24006KT 27/10 A2994 RMK A01 T02710095  RH  033%=      5-min Rain = 0
KVA1 150432Z 23006KT 27/10 A2994 RMK A01 T02700095  RH  033%=      5-min Rain = 0
KVA1 150433Z 23006KT 27/10 A2994 RMK A01 T02700096  RH  033%=      5-min Rain = 0
KVA1 150434Z 23006KT 27/10 A2994 RMK A01 T02700096  RH  033%=      5-min Rain = 0
KVA1 150435Z 24007KT 27/10 A2994 RMK A01 T02700096  RH  034%=      5-min Rain = 0
KVA1 150436Z 23007KT 27/10 A2994 RMK A01 T02690096  RH  034%=      5-min Rain = 0
KVA1 150437Z 23008KT 27/10 A2994 RMK A01 T02680096  RH  034%=      5-min Rain = 0
KVA1 150438Z 22008KT 27/10 A2994 RMK A01 T02680096  RH  034%=      5-min Rain = 0
KVA1 150439Z 22009KT 27/10 A2994 RMK A01 T02690096  RH  034%=      5-min Rain = 0
KVA1 150440Z 22009KT 27/10 A2994 RMK A01 T02690096  RH  034%=      5-min Rain = 0
KVA1 150441Z 22008KT 27/10 A2994 RMK A01 T02700097  RH  034%=      5-min Rain = 0
KVA1 150442Z 22009KT 27/10 A2994 RMK A01 T02710096  RH  033%=      5-min Rain = 0
KVA1 150443Z 22009KT 27/10 A2994 RMK A01 T02720096  RH  033%=      5-min Rain = 0
KVA1 150444Z 22008KT 28/10 A2994 RMK A01 T02750096  RH  033%=      5-min Rain = 0
KVA1 150445Z 22009KT 28/10 A2995 RMK A01 T02760097  RH  032%=      5-min Rain = 0
KVA1 150446Z 22008KT 28/10 A2995 RMK A01 T02760096  RH  032%=      5-min Rain = 0
KVA1 150447Z 22008KT 28/10 A2995 RMK A01 T02760097  RH  033%=      5-min Rain = 0
KVA1 150448Z 22008KT 28/10 A2995 RMK A01 T02760098  RH  033%=      5-min Rain = 0
KVA1 150449Z 22007KT 28/10 A2995 RMK A01 T02750097  RH  033%=      5-min Rain = 0
KVA1 150450Z 23007KT 28/10 A2995 RMK A01 T02750097  RH  033%=      5-min Rain = 0
KVA1 150451Z 23007KT 28/10 A2995 RMK A01 T02750097  RH  033%=      5-min Rain = 0
KVA1 150452Z 23006KT 27/10 A2995 RMK A01 T02740097  RH  033%=      5-min Rain = 0
KVA1 150453Z 23006KT 27/10 A2995 RMK A01 T02730097  RH  033%=      5-min Rain = 0
KVA1 150454Z 23006KT 27/10 A2995 RMK A01 T02710097  RH  033%=      5-min Rain = 0
KVA1 150455Z 23006KT 27/10 A2995 RMK A01 T02700098  RH  034%=      5-min Rain = 0
KVA1 150456Z 23006KT 27/10 A2995 RMK A01 T02690098  RH  034%=      5-min Rain = 0
KVA1 150457Z 23006KT 27/10 A2995 RMK A01 T02680098  RH  034%=      5-min Rain = 0
KVA1 150458Z 23007KT 27/10 A2995 RMK A01 T02680098  RH  034%=      5-min Rain = 0
KVA1 150459Z 23007KT 27/10 A2995 RMK A01 T02670098  RH  034%=      5-min Rain = 0

Page generated in 0.0747 seconds.